<?xml version="1.0" encoding="UTF-8" standalone="no" ?>
<gpx xmlns="http://www.topografix.com/GPX/1/1" creator="www.plotaroute.com" version="1.1"  xmlns:xsi="http://www.w3.org/2001/XMLSchema-instance" xsi:schemaLocation="http://www.topografix.com/GPX/1/1 http://www.topografix.com/GPX/1/1/gpx.xsd">
<metadata>
<desc>Route created on plotaroute.com</desc>
</metadata>
<wpt lat="31.78251" lon="35.00199">
<time>2021-06-16T01:47:37Z</time>
<name>FINISH</name>
<cmt>FINISH</cmt>
<desc>FINISH</desc>
<sym>Flag, Blue</sym>
</wpt>
<trk>
<name>NeveShalom-Zora36km720m</name>
<trkseg>
<trkpt lat="31.78236" lon="35.00203">
<ele>272</ele>
<time>2021-06-16T00:00:00Z</time></trkpt>
<trkpt lat="31.78235" lon="35.00204">
<ele>272</ele>
<time>2021-06-16T00:00:00Z</time></trkpt>
<trkpt lat="31.78192" lon="35.00217">
<ele>269</ele>
<time>2021-06-16T00:00:09Z</time></trkpt>
<trkpt lat="31.78139" lon="35.00231">
<ele>267</ele>
<time>2021-06-16T00:00:20Z</time></trkpt>
<trkpt lat="31.78122" lon="35.00194">
<ele>270</ele>
<time>2021-06-16T00:00:27Z</time></trkpt>
<trkpt lat="31.78112" lon="35.00176">
<ele>272</ele>
<time>2021-06-16T00:00:31Z</time></trkpt>
<trkpt lat="31.7812" lon="35.00158">
<ele>272</ele>
<time>2021-06-16T00:00:34Z</time></trkpt>
<trkpt lat="31.78139" lon="35.00098">
<ele>270</ele>
<time>2021-06-16T00:00:45Z</time></trkpt>
<trkpt lat="31.78139" lon="35.00089">
<ele>270</ele>
<time>2021-06-16T00:00:47Z</time></trkpt>
<trkpt lat="31.78107" lon="35.00074">
<ele>273</ele>
<time>2021-06-16T00:00:54Z</time></trkpt>
<trkpt lat="31.78078" lon="35.00059">
<ele>276</ele>
<time>2021-06-16T00:01:00Z</time></trkpt>
<trkpt lat="31.78067" lon="35.00049">
<ele>277</ele>
<time>2021-06-16T00:01:03Z</time></trkpt>
<trkpt lat="31.78063" lon="35.00038">
<ele>277</ele>
<time>2021-06-16T00:01:05Z</time></trkpt>
<trkpt lat="31.78061" lon="35.00019">
<ele>277</ele>
<time>2021-06-16T00:01:08Z</time></trkpt>
<trkpt lat="31.78061" lon="34.99944">
<ele>276</ele>
<time>2021-06-16T00:01:21Z</time></trkpt>
<trkpt lat="31.78049" lon="34.99904">
<ele>277</ele>
<time>2021-06-16T00:01:28Z</time></trkpt>
<trkpt lat="31.7804" lon="34.9989">
<ele>277</ele>
<time>2021-06-16T00:01:31Z</time></trkpt>
<trkpt lat="31.78029" lon="34.99881">
<ele>276</ele>
<time>2021-06-16T00:01:34Z</time></trkpt>
<trkpt lat="31.77983" lon="34.99851">
<ele>276</ele>
<time>2021-06-16T00:01:44Z</time></trkpt>
<trkpt lat="31.77977" lon="34.99842">
<ele>276</ele>
<time>2021-06-16T00:01:46Z</time></trkpt>
<trkpt lat="31.77974" lon="34.9983">
<ele>277</ele>
<time>2021-06-16T00:01:48Z</time></trkpt>
<trkpt lat="31.77973" lon="34.99815">
<ele>278</ele>
<time>2021-06-16T00:01:51Z</time></trkpt>
<trkpt lat="31.77976" lon="34.99799">
<ele>279</ele>
<time>2021-06-16T00:01:54Z</time></trkpt>
<trkpt lat="31.77991" lon="34.99762">
<ele>280</ele>
<time>2021-06-16T00:02:01Z</time></trkpt>
<trkpt lat="31.77994" lon="34.99748">
<ele>280</ele>
<time>2021-06-16T00:02:03Z</time></trkpt>
<trkpt lat="31.77995" lon="34.99737">
<ele>281</ele>
<time>2021-06-16T00:02:05Z</time></trkpt>
<trkpt lat="31.77993" lon="34.99721">
<ele>282</ele>
<time>2021-06-16T00:02:08Z</time></trkpt>
<trkpt lat="31.77988" lon="34.99701">
<ele>284</ele>
<time>2021-06-16T00:02:11Z</time></trkpt>
<trkpt lat="31.77961" lon="34.99643">
<ele>291</ele>
<time>2021-06-16T00:02:23Z</time></trkpt>
<trkpt lat="31.7796" lon="34.99628">
<ele>292</ele>
<time>2021-06-16T00:02:25Z</time></trkpt>
<trkpt lat="31.77986" lon="34.99578">
<ele>291</ele>
<time>2021-06-16T00:02:35Z</time></trkpt>
<trkpt lat="31.78004" lon="34.99557">
<ele>292</ele>
<time>2021-06-16T00:02:40Z</time></trkpt>
<trkpt lat="31.78025" lon="34.99546">
<ele>293</ele>
<time>2021-06-16T00:02:45Z</time></trkpt>
<trkpt lat="31.78032" lon="34.99547">
<ele>293</ele>
<time>2021-06-16T00:02:46Z</time></trkpt>
<trkpt lat="31.78066" lon="34.99567">
<ele>290</ele>
<time>2021-06-16T00:02:54Z</time></trkpt>
<trkpt lat="31.78072" lon="34.99569">
<ele>290</ele>
<time>2021-06-16T00:02:55Z</time></trkpt>
<trkpt lat="31.78071" lon="34.99569">
<ele>290</ele>
<time>2021-06-16T00:02:55Z</time></trkpt>
<trkpt lat="31.78117" lon="34.99585">
<ele>290</ele>
<time>2021-06-16T00:03:05Z</time></trkpt>
<trkpt lat="31.78141" lon="34.99598">
<ele>290</ele>
<time>2021-06-16T00:03:10Z</time></trkpt>
<trkpt lat="31.78182" lon="34.99608">
<ele>292</ele>
<time>2021-06-16T00:03:19Z</time></trkpt>
<trkpt lat="31.78234" lon="34.99629">
<ele>294</ele>
<time>2021-06-16T00:03:30Z</time></trkpt>
<trkpt lat="31.78268" lon="34.99647">
<ele>295</ele>
<time>2021-06-16T00:03:37Z</time></trkpt>
<trkpt lat="31.78325" lon="34.99664">
<ele>298</ele>
<time>2021-06-16T00:03:49Z</time></trkpt>
<trkpt lat="31.78344" lon="34.99672">
<ele>299</ele>
<time>2021-06-16T00:03:53Z</time></trkpt>
<trkpt lat="31.78373" lon="34.997">
<ele>301</ele>
<time>2021-06-16T00:04:00Z</time></trkpt>
<trkpt lat="31.78382" lon="34.99712">
<ele>301</ele>
<time>2021-06-16T00:04:03Z</time></trkpt>
<trkpt lat="31.78388" lon="34.99723">
<ele>300</ele>
<time>2021-06-16T00:04:05Z</time></trkpt>
<trkpt lat="31.78392" lon="34.99737">
<ele>300</ele>
<time>2021-06-16T00:04:08Z</time></trkpt>
<trkpt lat="31.78393" lon="34.99745">
<ele>299</ele>
<time>2021-06-16T00:04:09Z</time></trkpt>
<trkpt lat="31.7839" lon="34.99755">
<ele>298</ele>
<time>2021-06-16T00:04:11Z</time></trkpt>
<trkpt lat="31.78372" lon="34.99793">
<ele>294</ele>
<time>2021-06-16T00:04:19Z</time></trkpt>
<trkpt lat="31.78367" lon="34.99809">
<ele>293</ele>
<time>2021-06-16T00:04:21Z</time></trkpt>
<trkpt lat="31.78367" lon="34.99818">
<ele>292</ele>
<time>2021-06-16T00:04:23Z</time></trkpt>
<trkpt lat="31.7837" lon="34.99832">
<ele>292</ele>
<time>2021-06-16T00:04:25Z</time></trkpt>
<trkpt lat="31.78376" lon="34.99843">
<ele>292</ele>
<time>2021-06-16T00:04:28Z</time></trkpt>
<trkpt lat="31.78384" lon="34.99853">
<ele>292</ele>
<time>2021-06-16T00:04:30Z</time></trkpt>
<trkpt lat="31.78415" lon="34.99878">
<ele>294</ele>
<time>2021-06-16T00:04:38Z</time></trkpt>
<trkpt lat="31.78456" lon="34.99917">
<ele>295</ele>
<time>2021-06-16T00:04:48Z</time></trkpt>
<trkpt lat="31.78491" lon="34.99916">
<ele>298</ele>
<time>2021-06-16T00:04:55Z</time></trkpt>
<trkpt lat="31.7852" lon="34.99918">
<ele>300</ele>
<time>2021-06-16T00:05:01Z</time></trkpt>
<trkpt lat="31.78535" lon="34.99916">
<ele>300</ele>
<time>2021-06-16T00:05:04Z</time></trkpt>
<trkpt lat="31.78545" lon="34.9991">
<ele>301</ele>
<time>2021-06-16T00:05:06Z</time></trkpt>
<trkpt lat="31.78557" lon="34.999">
<ele>303</ele>
<time>2021-06-16T00:05:09Z</time></trkpt>
<trkpt lat="31.78572" lon="34.99882">
<ele>306</ele>
<time>2021-06-16T00:05:13Z</time></trkpt>
<trkpt lat="31.78581" lon="34.99874">
<ele>308</ele>
<time>2021-06-16T00:05:16Z</time></trkpt>
<trkpt lat="31.78617" lon="34.99857">
<ele>310</ele>
<time>2021-06-16T00:05:23Z</time></trkpt>
<trkpt lat="31.78638" lon="34.99833">
<ele>313</ele>
<time>2021-06-16T00:05:29Z</time></trkpt>
<trkpt lat="31.7865" lon="34.99832">
<ele>313</ele>
<time>2021-06-16T00:05:32Z</time></trkpt>
<trkpt lat="31.78684" lon="34.99806">
<ele>318</ele>
<time>2021-06-16T00:05:40Z</time></trkpt>
<trkpt lat="31.78708" lon="34.99738">
<ele>324</ele>
<time>2021-06-16T00:05:52Z</time></trkpt>
<trkpt lat="31.78706" lon="34.99701">
<ele>326</ele>
<time>2021-06-16T00:05:59Z</time></trkpt>
<trkpt lat="31.78697" lon="34.99638">
<ele>329</ele>
<time>2021-06-16T00:06:10Z</time></trkpt>
<trkpt lat="31.78703" lon="34.99626">
<ele>330</ele>
<time>2021-06-16T00:06:12Z</time></trkpt>
<trkpt lat="31.78684" lon="34.99616">
<ele>330</ele>
<time>2021-06-16T00:06:16Z</time></trkpt>
<trkpt lat="31.78676" lon="34.99617">
<ele>330</ele>
<time>2021-06-16T00:06:18Z</time></trkpt>
<trkpt lat="31.78648" lon="34.99629">
<ele>331</ele>
<time>2021-06-16T00:06:24Z</time></trkpt>
<trkpt lat="31.78608" lon="34.99631">
<ele>335</ele>
<time>2021-06-16T00:06:32Z</time></trkpt>
<trkpt lat="31.78607" lon="34.99626">
<ele>335</ele>
<time>2021-06-16T00:06:33Z</time></trkpt>
<trkpt lat="31.78609" lon="34.99613">
<ele>336</ele>
<time>2021-06-16T00:06:35Z</time></trkpt>
<trkpt lat="31.78613" lon="34.99602">
<ele>336</ele>
<time>2021-06-16T00:06:37Z</time></trkpt>
<trkpt lat="31.78629" lon="34.99578">
<ele>336</ele>
<time>2021-06-16T00:06:42Z</time></trkpt>
<trkpt lat="31.7865" lon="34.99551">
<ele>336</ele>
<time>2021-06-16T00:06:48Z</time></trkpt>
<trkpt lat="31.78673" lon="34.99527">
<ele>335</ele>
<time>2021-06-16T00:06:55Z</time></trkpt>
<trkpt lat="31.78687" lon="34.99516">
<ele>335</ele>
<time>2021-06-16T00:06:58Z</time></trkpt>
<trkpt lat="31.78697" lon="34.99512">
<ele>335</ele>
<time>2021-06-16T00:07:00Z</time></trkpt>
<trkpt lat="31.78705" lon="34.99505">
<ele>334</ele>
<time>2021-06-16T00:07:02Z</time></trkpt>
<trkpt lat="31.78713" lon="34.99493">
<ele>333</ele>
<time>2021-06-16T00:07:05Z</time></trkpt>
<trkpt lat="31.78716" lon="34.99481">
<ele>333</ele>
<time>2021-06-16T00:07:07Z</time></trkpt>
<trkpt lat="31.78719" lon="34.99424">
<ele>332</ele>
<time>2021-06-16T00:07:16Z</time></trkpt>
<trkpt lat="31.78725" lon="34.99385">
<ele>330</ele>
<time>2021-06-16T00:07:23Z</time></trkpt>
<trkpt lat="31.78716" lon="34.99341">
<ele>331</ele>
<time>2021-06-16T00:07:31Z</time></trkpt>
<trkpt lat="31.78717" lon="34.99336">
<ele>331</ele>
<time>2021-06-16T00:07:32Z</time></trkpt>
<trkpt lat="31.78731" lon="34.99317">
<ele>329</ele>
<time>2021-06-16T00:07:36Z</time></trkpt>
<trkpt lat="31.78735" lon="34.99307">
<ele>329</ele>
<time>2021-06-16T00:07:38Z</time></trkpt>
<trkpt lat="31.78737" lon="34.99296">
<ele>329</ele>
<time>2021-06-16T00:07:40Z</time></trkpt>
<trkpt lat="31.78737" lon="34.99283">
<ele>329</ele>
<time>2021-06-16T00:07:42Z</time></trkpt>
<trkpt lat="31.78734" lon="34.99266">
<ele>330</ele>
<time>2021-06-16T00:07:45Z</time></trkpt>
<trkpt lat="31.78723" lon="34.99238">
<ele>333</ele>
<time>2021-06-16T00:07:50Z</time></trkpt>
<trkpt lat="31.78718" lon="34.99219">
<ele>334</ele>
<time>2021-06-16T00:07:54Z</time></trkpt>
<trkpt lat="31.78721" lon="34.99192">
<ele>334</ele>
<time>2021-06-16T00:07:58Z</time></trkpt>
<trkpt lat="31.7872" lon="34.99168">
<ele>335</ele>
<time>2021-06-16T00:08:02Z</time></trkpt>
<trkpt lat="31.78722" lon="34.99124">
<ele>337</ele>
<time>2021-06-16T00:08:10Z</time></trkpt>
<trkpt lat="31.7872" lon="34.99085">
<ele>339</ele>
<time>2021-06-16T00:08:17Z</time></trkpt>
<trkpt lat="31.78723" lon="34.99068">
<ele>339</ele>
<time>2021-06-16T00:08:20Z</time></trkpt>
<trkpt lat="31.78734" lon="34.99034">
<ele>338</ele>
<time>2021-06-16T00:08:26Z</time></trkpt>
<trkpt lat="31.78755" lon="34.99001">
<ele>337</ele>
<time>2021-06-16T00:08:33Z</time></trkpt>
<trkpt lat="31.78759" lon="34.98987">
<ele>336</ele>
<time>2021-06-16T00:08:35Z</time></trkpt>
<trkpt lat="31.7876" lon="34.98976">
<ele>336</ele>
<time>2021-06-16T00:08:37Z</time></trkpt>
<trkpt lat="31.78759" lon="34.98961">
<ele>336</ele>
<time>2021-06-16T00:08:40Z</time></trkpt>
<trkpt lat="31.7875" lon="34.98909">
<ele>338</ele>
<time>2021-06-16T00:08:49Z</time></trkpt>
<trkpt lat="31.78742" lon="34.98866">
<ele>338</ele>
<time>2021-06-16T00:08:56Z</time></trkpt>
<trkpt lat="31.78731" lon="34.98839">
<ele>338</ele>
<time>2021-06-16T00:09:01Z</time></trkpt>
<trkpt lat="31.78729" lon="34.98828">
<ele>338</ele>
<time>2021-06-16T00:09:03Z</time></trkpt>
<trkpt lat="31.78729" lon="34.98817">
<ele>338</ele>
<time>2021-06-16T00:09:05Z</time></trkpt>
<trkpt lat="31.78745" lon="34.98763">
<ele>337</ele>
<time>2021-06-16T00:09:15Z</time></trkpt>
<trkpt lat="31.78747" lon="34.98741">
<ele>337</ele>
<time>2021-06-16T00:09:19Z</time></trkpt>
<trkpt lat="31.78745" lon="34.98729">
<ele>336</ele>
<time>2021-06-16T00:09:21Z</time></trkpt>
<trkpt lat="31.7874" lon="34.98711">
<ele>336</ele>
<time>2021-06-16T00:09:24Z</time></trkpt>
<trkpt lat="31.78727" lon="34.98688">
<ele>335</ele>
<time>2021-06-16T00:09:29Z</time></trkpt>
<trkpt lat="31.78719" lon="34.9868">
<ele>335</ele>
<time>2021-06-16T00:09:31Z</time></trkpt>
<trkpt lat="31.78672" lon="34.98658">
<ele>335</ele>
<time>2021-06-16T00:09:41Z</time></trkpt>
<trkpt lat="31.78658" lon="34.98654">
<ele>333</ele>
<time>2021-06-16T00:09:44Z</time></trkpt>
<trkpt lat="31.78651" lon="34.98655">
<ele>333</ele>
<time>2021-06-16T00:09:45Z</time></trkpt>
<trkpt lat="31.78647" lon="34.98659">
<ele>333</ele>
<time>2021-06-16T00:09:46Z</time></trkpt>
<trkpt lat="31.78644" lon="34.98665">
<ele>333</ele>
<time>2021-06-16T00:09:47Z</time></trkpt>
<trkpt lat="31.78641" lon="34.98712">
<ele>334</ele>
<time>2021-06-16T00:09:55Z</time></trkpt>
<trkpt lat="31.78641" lon="34.98762">
<ele>334</ele>
<time>2021-06-16T00:10:04Z</time></trkpt>
<trkpt lat="31.78647" lon="34.98825">
<ele>334</ele>
<time>2021-06-16T00:10:15Z</time></trkpt>
<trkpt lat="31.78645" lon="34.98855">
<ele>334</ele>
<time>2021-06-16T00:10:20Z</time></trkpt>
<trkpt lat="31.78639" lon="34.98905">
<ele>334</ele>
<time>2021-06-16T00:10:29Z</time></trkpt>
<trkpt lat="31.78636" lon="34.98953">
<ele>338</ele>
<time>2021-06-16T00:10:37Z</time></trkpt>
<trkpt lat="31.78634" lon="34.98968">
<ele>339</ele>
<time>2021-06-16T00:10:39Z</time></trkpt>
<trkpt lat="31.78614" lon="34.99005">
<ele>341</ele>
<time>2021-06-16T00:10:47Z</time></trkpt>
<trkpt lat="31.78599" lon="34.99015">
<ele>341</ele>
<time>2021-06-16T00:10:50Z</time></trkpt>
<trkpt lat="31.78592" lon="34.99017">
<ele>341</ele>
<time>2021-06-16T00:10:52Z</time></trkpt>
<trkpt lat="31.78585" lon="34.99016">
<ele>340</ele>
<time>2021-06-16T00:10:53Z</time></trkpt>
<trkpt lat="31.78555" lon="34.98995">
<ele>337</ele>
<time>2021-06-16T00:11:00Z</time></trkpt>
<trkpt lat="31.78546" lon="34.98995">
<ele>337</ele>
<time>2021-06-16T00:11:02Z</time></trkpt>
<trkpt lat="31.78533" lon="34.99002">
<ele>338</ele>
<time>2021-06-16T00:11:05Z</time></trkpt>
<trkpt lat="31.78516" lon="34.99015">
<ele>338</ele>
<time>2021-06-16T00:11:09Z</time></trkpt>
<trkpt lat="31.78508" lon="34.99022">
<ele>339</ele>
<time>2021-06-16T00:11:11Z</time></trkpt>
<trkpt lat="31.785" lon="34.99035">
<ele>339</ele>
<time>2021-06-16T00:11:14Z</time></trkpt>
<trkpt lat="31.78493" lon="34.99053">
<ele>339</ele>
<time>2021-06-16T00:11:17Z</time></trkpt>
<trkpt lat="31.7849" lon="34.99078">
<ele>340</ele>
<time>2021-06-16T00:11:21Z</time></trkpt>
<trkpt lat="31.78496" lon="34.99116">
<ele>344</ele>
<time>2021-06-16T00:11:28Z</time></trkpt>
<trkpt lat="31.78505" lon="34.99144">
<ele>347</ele>
<time>2021-06-16T00:11:33Z</time></trkpt>
<trkpt lat="31.78505" lon="34.9916">
<ele>348</ele>
<time>2021-06-16T00:11:36Z</time></trkpt>
<trkpt lat="31.785" lon="34.99174">
<ele>349</ele>
<time>2021-06-16T00:11:38Z</time></trkpt>
<trkpt lat="31.78496" lon="34.9918">
<ele>349</ele>
<time>2021-06-16T00:11:39Z</time></trkpt>
<trkpt lat="31.7849" lon="34.99184">
<ele>350</ele>
<time>2021-06-16T00:11:41Z</time></trkpt>
<trkpt lat="31.78461" lon="34.99191">
<ele>349</ele>
<time>2021-06-16T00:11:47Z</time></trkpt>
<trkpt lat="31.78422" lon="34.99186">
<ele>346</ele>
<time>2021-06-16T00:11:55Z</time></trkpt>
<trkpt lat="31.78399" lon="34.99177">
<ele>345</ele>
<time>2021-06-16T00:12:00Z</time></trkpt>
<trkpt lat="31.7839" lon="34.99172">
<ele>345</ele>
<time>2021-06-16T00:12:02Z</time></trkpt>
<trkpt lat="31.78363" lon="34.99147">
<ele>344</ele>
<time>2021-06-16T00:12:08Z</time></trkpt>
<trkpt lat="31.78349" lon="34.99129">
<ele>343</ele>
<time>2021-06-16T00:12:13Z</time></trkpt>
<trkpt lat="31.78336" lon="34.99106">
<ele>340</ele>
<time>2021-06-16T00:12:17Z</time></trkpt>
<trkpt lat="31.7832" lon="34.99064">
<ele>336</ele>
<time>2021-06-16T00:12:25Z</time></trkpt>
<trkpt lat="31.78312" lon="34.99026">
<ele>332</ele>
<time>2021-06-16T00:12:32Z</time></trkpt>
<trkpt lat="31.78305" lon="34.99006">
<ele>330</ele>
<time>2021-06-16T00:12:35Z</time></trkpt>
<trkpt lat="31.78297" lon="34.98994">
<ele>329</ele>
<time>2021-06-16T00:12:38Z</time></trkpt>
<trkpt lat="31.78286" lon="34.98987">
<ele>329</ele>
<time>2021-06-16T00:12:41Z</time></trkpt>
<trkpt lat="31.78277" lon="34.98986">
<ele>330</ele>
<time>2021-06-16T00:12:42Z</time></trkpt>
<trkpt lat="31.78252" lon="34.98994">
<ele>333</ele>
<time>2021-06-16T00:12:48Z</time></trkpt>
<trkpt lat="31.78234" lon="34.98999">
<ele>333</ele>
<time>2021-06-16T00:12:51Z</time></trkpt>
<trkpt lat="31.78226" lon="34.98999">
<ele>332</ele>
<time>2021-06-16T00:12:53Z</time></trkpt>
<trkpt lat="31.78207" lon="34.98992">
<ele>329</ele>
<time>2021-06-16T00:12:57Z</time></trkpt>
<trkpt lat="31.782" lon="34.98994">
<ele>329</ele>
<time>2021-06-16T00:12:58Z</time></trkpt>
<trkpt lat="31.78195" lon="34.98998">
<ele>329</ele>
<time>2021-06-16T00:13:00Z</time></trkpt>
<trkpt lat="31.78193" lon="34.99005">
<ele>330</ele>
<time>2021-06-16T00:13:01Z</time></trkpt>
<trkpt lat="31.78193" lon="34.99021">
<ele>331</ele>
<time>2021-06-16T00:13:03Z</time></trkpt>
<trkpt lat="31.78198" lon="34.99071">
<ele>335</ele>
<time>2021-06-16T00:13:12Z</time></trkpt>
<trkpt lat="31.78199" lon="34.99113">
<ele>339</ele>
<time>2021-06-16T00:13:19Z</time></trkpt>
<trkpt lat="31.78193" lon="34.99172">
<ele>343</ele>
<time>2021-06-16T00:13:29Z</time></trkpt>
<trkpt lat="31.78189" lon="34.99188">
<ele>343</ele>
<time>2021-06-16T00:13:32Z</time></trkpt>
<trkpt lat="31.7818" lon="34.992">
<ele>343</ele>
<time>2021-06-16T00:13:35Z</time></trkpt>
<trkpt lat="31.78175" lon="34.99202">
<ele>342</ele>
<time>2021-06-16T00:13:36Z</time></trkpt>
<trkpt lat="31.78168" lon="34.99203">
<ele>341</ele>
<time>2021-06-16T00:13:37Z</time></trkpt>
<trkpt lat="31.78092" lon="34.99178">
<ele>342</ele>
<time>2021-06-16T00:13:53Z</time></trkpt>
<trkpt lat="31.78039" lon="34.99168">
<ele>344</ele>
<time>2021-06-16T00:14:04Z</time></trkpt>
<trkpt lat="31.7803" lon="34.99164">
<ele>343</ele>
<time>2021-06-16T00:14:06Z</time></trkpt>
<trkpt lat="31.78017" lon="34.99156">
<ele>343</ele>
<time>2021-06-16T00:14:09Z</time></trkpt>
<trkpt lat="31.77908" lon="34.99074">
<ele>336</ele>
<time>2021-06-16T00:14:35Z</time></trkpt>
<trkpt lat="31.77876" lon="34.99062">
<ele>338</ele>
<time>2021-06-16T00:14:41Z</time></trkpt>
<trkpt lat="31.77863" lon="34.99051">
<ele>339</ele>
<time>2021-06-16T00:14:45Z</time></trkpt>
<trkpt lat="31.77853" lon="34.9903">
<ele>341</ele>
<time>2021-06-16T00:14:49Z</time></trkpt>
<trkpt lat="31.77851" lon="34.98932">
<ele>349</ele>
<time>2021-06-16T00:15:05Z</time></trkpt>
<trkpt lat="31.77856" lon="34.98919">
<ele>349</ele>
<time>2021-06-16T00:15:08Z</time></trkpt>
<trkpt lat="31.77881" lon="34.98865">
<ele>343</ele>
<time>2021-06-16T00:15:18Z</time></trkpt>
<trkpt lat="31.77882" lon="34.98858">
<ele>343</ele>
<time>2021-06-16T00:15:20Z</time></trkpt>
<trkpt lat="31.77879" lon="34.98845">
<ele>343</ele>
<time>2021-06-16T00:15:22Z</time></trkpt>
<trkpt lat="31.77872" lon="34.98835">
<ele>343</ele>
<time>2021-06-16T00:15:24Z</time></trkpt>
<trkpt lat="31.77854" lon="34.98818">
<ele>341</ele>
<time>2021-06-16T00:15:29Z</time></trkpt>
<trkpt lat="31.77844" lon="34.9881">
<ele>341</ele>
<time>2021-06-16T00:15:31Z</time></trkpt>
<trkpt lat="31.77834" lon="34.98807">
<ele>341</ele>
<time>2021-06-16T00:15:33Z</time></trkpt>
<trkpt lat="31.77833" lon="34.98807">
<ele>341</ele>
<time>2021-06-16T00:15:33Z</time></trkpt>
<trkpt lat="31.77799" lon="34.98794">
<ele>341</ele>
<time>2021-06-16T00:15:41Z</time></trkpt>
<trkpt lat="31.77758" lon="34.98767">
<ele>339</ele>
<time>2021-06-16T00:15:50Z</time></trkpt>
<trkpt lat="31.77712" lon="34.98724">
<ele>338</ele>
<time>2021-06-16T00:16:02Z</time></trkpt>
<trkpt lat="31.77692" lon="34.98694">
<ele>339</ele>
<time>2021-06-16T00:16:08Z</time></trkpt>
<trkpt lat="31.77672" lon="34.98659">
<ele>340</ele>
<time>2021-06-16T00:16:15Z</time></trkpt>
<trkpt lat="31.77669" lon="34.9864">
<ele>342</ele>
<time>2021-06-16T00:16:19Z</time></trkpt>
<trkpt lat="31.77664" lon="34.98624">
<ele>343</ele>
<time>2021-06-16T00:16:22Z</time></trkpt>
<trkpt lat="31.77651" lon="34.98624">
<ele>347</ele>
<time>2021-06-16T00:16:24Z</time></trkpt>
<trkpt lat="31.77645" lon="34.98626">
<ele>348</ele>
<time>2021-06-16T00:16:25Z</time></trkpt>
<trkpt lat="31.77637" lon="34.98632">
<ele>350</ele>
<time>2021-06-16T00:16:27Z</time></trkpt>
<trkpt lat="31.77632" lon="34.98639">
<ele>351</ele>
<time>2021-06-16T00:16:29Z</time></trkpt>
<trkpt lat="31.7761" lon="34.98674">
<ele>353</ele>
<time>2021-06-16T00:16:36Z</time></trkpt>
<trkpt lat="31.77599" lon="34.98686">
<ele>355</ele>
<time>2021-06-16T00:16:39Z</time></trkpt>
<trkpt lat="31.77563" lon="34.98717">
<ele>354</ele>
<time>2021-06-16T00:16:48Z</time></trkpt>
<trkpt lat="31.77537" lon="34.98726">
<ele>353</ele>
<time>2021-06-16T00:16:54Z</time></trkpt>
<trkpt lat="31.77536" lon="34.98724">
<ele>354</ele>
<time>2021-06-16T00:16:54Z</time></trkpt>
<trkpt lat="31.7753" lon="34.98721">
<ele>354</ele>
<time>2021-06-16T00:16:55Z</time></trkpt>
<trkpt lat="31.77525" lon="34.98725">
<ele>354</ele>
<time>2021-06-16T00:16:57Z</time></trkpt>
<trkpt lat="31.77524" lon="34.98728">
<ele>353</ele>
<time>2021-06-16T00:16:57Z</time></trkpt>
<trkpt lat="31.7746" lon="34.98662">
<ele>362</ele>
<time>2021-06-16T00:17:14Z</time></trkpt>
<trkpt lat="31.77459" lon="34.98662">
<ele>362</ele>
<time>2021-06-16T00:17:14Z</time></trkpt>
<trkpt lat="31.77395" lon="34.98601">
<ele>367</ele>
<time>2021-06-16T00:17:31Z</time></trkpt>
<trkpt lat="31.77375" lon="34.98579">
<ele>367</ele>
<time>2021-06-16T00:17:36Z</time></trkpt>
<trkpt lat="31.77363" lon="34.98558">
<ele>367</ele>
<time>2021-06-16T00:17:41Z</time></trkpt>
<trkpt lat="31.7734" lon="34.98516">
<ele>367</ele>
<time>2021-06-16T00:17:49Z</time></trkpt>
<trkpt lat="31.77334" lon="34.98501">
<ele>368</ele>
<time>2021-06-16T00:17:52Z</time></trkpt>
<trkpt lat="31.7733" lon="34.98485">
<ele>368</ele>
<time>2021-06-16T00:17:55Z</time></trkpt>
<trkpt lat="31.77329" lon="34.98461">
<ele>368</ele>
<time>2021-06-16T00:17:59Z</time></trkpt>
<trkpt lat="31.77331" lon="34.98395">
<ele>371</ele>
<time>2021-06-16T00:18:10Z</time></trkpt>
<trkpt lat="31.77262" lon="34.98265">
<ele>369</ele>
<time>2021-06-16T00:18:36Z</time></trkpt>
<trkpt lat="31.77262" lon="34.98264">
<ele>369</ele>
<time>2021-06-16T00:18:37Z</time></trkpt>
<trkpt lat="31.77237" lon="34.9822">
<ele>366</ele>
<time>2021-06-16T00:18:46Z</time></trkpt>
<trkpt lat="31.77214" lon="34.98193">
<ele>361</ele>
<time>2021-06-16T00:18:52Z</time></trkpt>
<trkpt lat="31.77208" lon="34.98182">
<ele>360</ele>
<time>2021-06-16T00:18:54Z</time></trkpt>
<trkpt lat="31.77203" lon="34.98136">
<ele>357</ele>
<time>2021-06-16T00:19:02Z</time></trkpt>
<trkpt lat="31.77198" lon="34.98116">
<ele>354</ele>
<time>2021-06-16T00:19:06Z</time></trkpt>
<trkpt lat="31.77192" lon="34.981">
<ele>351</ele>
<time>2021-06-16T00:19:09Z</time></trkpt>
<trkpt lat="31.77183" lon="34.98094">
<ele>348</ele>
<time>2021-06-16T00:19:11Z</time></trkpt>
<trkpt lat="31.77159" lon="34.98085">
<ele>340</ele>
<time>2021-06-16T00:19:16Z</time></trkpt>
<trkpt lat="31.77153" lon="34.9808">
<ele>339</ele>
<time>2021-06-16T00:19:17Z</time></trkpt>
<trkpt lat="31.77149" lon="34.98073">
<ele>338</ele>
<time>2021-06-16T00:19:19Z</time></trkpt>
<trkpt lat="31.77147" lon="34.98052">
<ele>337</ele>
<time>2021-06-16T00:19:22Z</time></trkpt>
<trkpt lat="31.7715" lon="34.98039">
<ele>338</ele>
<time>2021-06-16T00:19:25Z</time></trkpt>
<trkpt lat="31.77154" lon="34.98032">
<ele>339</ele>
<time>2021-06-16T00:19:26Z</time></trkpt>
<trkpt lat="31.77161" lon="34.98023">
<ele>341</ele>
<time>2021-06-16T00:19:28Z</time></trkpt>
<trkpt lat="31.77186" lon="34.98005">
<ele>347</ele>
<time>2021-06-16T00:19:34Z</time></trkpt>
<trkpt lat="31.77188" lon="34.97998">
<ele>348</ele>
<time>2021-06-16T00:19:35Z</time></trkpt>
<trkpt lat="31.77187" lon="34.9799">
<ele>349</ele>
<time>2021-06-16T00:19:37Z</time></trkpt>
<trkpt lat="31.7718" lon="34.97981">
<ele>349</ele>
<time>2021-06-16T00:19:39Z</time></trkpt>
<trkpt lat="31.77135" lon="34.97964">
<ele>341</ele>
<time>2021-06-16T00:19:48Z</time></trkpt>
<trkpt lat="31.77129" lon="34.97963">
<ele>339</ele>
<time>2021-06-16T00:19:49Z</time></trkpt>
<trkpt lat="31.77115" lon="34.97956">
<ele>337</ele>
<time>2021-06-16T00:19:53Z</time></trkpt>
<trkpt lat="31.77106" lon="34.97948">
<ele>336</ele>
<time>2021-06-16T00:19:55Z</time></trkpt>
<trkpt lat="31.77088" lon="34.97902">
<ele>340</ele>
<time>2021-06-16T00:20:03Z</time></trkpt>
<trkpt lat="31.77052" lon="34.97848">
<ele>340</ele>
<time>2021-06-16T00:20:15Z</time></trkpt>
<trkpt lat="31.77033" lon="34.97824">
<ele>337</ele>
<time>2021-06-16T00:20:21Z</time></trkpt>
<trkpt lat="31.77032" lon="34.97824">
<ele>337</ele>
<time>2021-06-16T00:20:21Z</time></trkpt>
<trkpt lat="31.77006" lon="34.97794">
<ele>332</ele>
<time>2021-06-16T00:20:28Z</time></trkpt>
<trkpt lat="31.7698" lon="34.97778">
<ele>329</ele>
<time>2021-06-16T00:20:34Z</time></trkpt>
<trkpt lat="31.76955" lon="34.97741">
<ele>327</ele>
<time>2021-06-16T00:20:42Z</time></trkpt>
<trkpt lat="31.76942" lon="34.97717">
<ele>325</ele>
<time>2021-06-16T00:20:47Z</time></trkpt>
<trkpt lat="31.76938" lon="34.97705">
<ele>325</ele>
<time>2021-06-16T00:20:49Z</time></trkpt>
<trkpt lat="31.76933" lon="34.97681">
<ele>324</ele>
<time>2021-06-16T00:20:53Z</time></trkpt>
<trkpt lat="31.76935" lon="34.97667">
<ele>325</ele>
<time>2021-06-16T00:20:56Z</time></trkpt>
<trkpt lat="31.76941" lon="34.97657">
<ele>327</ele>
<time>2021-06-16T00:20:58Z</time></trkpt>
<trkpt lat="31.76959" lon="34.97637">
<ele>332</ele>
<time>2021-06-16T00:21:03Z</time></trkpt>
<trkpt lat="31.76969" lon="34.97621">
<ele>335</ele>
<time>2021-06-16T00:21:06Z</time></trkpt>
<trkpt lat="31.76972" lon="34.97614">
<ele>336</ele>
<time>2021-06-16T00:21:08Z</time></trkpt>
<trkpt lat="31.76973" lon="34.97604">
<ele>336</ele>
<time>2021-06-16T00:21:09Z</time></trkpt>
<trkpt lat="31.76969" lon="34.97596">
<ele>336</ele>
<time>2021-06-16T00:21:11Z</time></trkpt>
<trkpt lat="31.76963" lon="34.97592">
<ele>335</ele>
<time>2021-06-16T00:21:12Z</time></trkpt>
<trkpt lat="31.7695" lon="34.9759">
<ele>333</ele>
<time>2021-06-16T00:21:15Z</time></trkpt>
<trkpt lat="31.7693" lon="34.97596">
<ele>329</ele>
<time>2021-06-16T00:21:19Z</time></trkpt>
<trkpt lat="31.76916" lon="34.97596">
<ele>327</ele>
<time>2021-06-16T00:21:22Z</time></trkpt>
<trkpt lat="31.76904" lon="34.97592">
<ele>326</ele>
<time>2021-06-16T00:21:24Z</time></trkpt>
<trkpt lat="31.76869" lon="34.97572">
<ele>325</ele>
<time>2021-06-16T00:21:32Z</time></trkpt>
<trkpt lat="31.7675" lon="34.97465">
<ele>327</ele>
<time>2021-06-16T00:22:02Z</time></trkpt>
<trkpt lat="31.76743" lon="34.97457">
<ele>327</ele>
<time>2021-06-16T00:22:04Z</time></trkpt>
<trkpt lat="31.76728" lon="34.97432">
<ele>328</ele>
<time>2021-06-16T00:22:09Z</time></trkpt>
<trkpt lat="31.76707" lon="34.97383">
<ele>328</ele>
<time>2021-06-16T00:22:19Z</time></trkpt>
<trkpt lat="31.76694" lon="34.97334">
<ele>328</ele>
<time>2021-06-16T00:22:27Z</time></trkpt>
<trkpt lat="31.76687" lon="34.97302">
<ele>324</ele>
<time>2021-06-16T00:22:33Z</time></trkpt>
<trkpt lat="31.76685" lon="34.97281">
<ele>322</ele>
<time>2021-06-16T00:22:37Z</time></trkpt>
<trkpt lat="31.76686" lon="34.97268">
<ele>321</ele>
<time>2021-06-16T00:22:39Z</time></trkpt>
<trkpt lat="31.76691" lon="34.97229">
<ele>320</ele>
<time>2021-06-16T00:22:46Z</time></trkpt>
<trkpt lat="31.76699" lon="34.97205">
<ele>320</ele>
<time>2021-06-16T00:22:50Z</time></trkpt>
<trkpt lat="31.76714" lon="34.97184">
<ele>322</ele>
<time>2021-06-16T00:22:55Z</time></trkpt>
<trkpt lat="31.76714" lon="34.97185">
<ele>322</ele>
<time>2021-06-16T00:22:55Z</time></trkpt>
<trkpt lat="31.76766" lon="34.97134">
<ele>328</ele>
<time>2021-06-16T00:23:08Z</time></trkpt>
<trkpt lat="31.76792" lon="34.97118">
<ele>332</ele>
<time>2021-06-16T00:23:14Z</time></trkpt>
<trkpt lat="31.76811" lon="34.97103">
<ele>333</ele>
<time>2021-06-16T00:23:19Z</time></trkpt>
<trkpt lat="31.76835" lon="34.97078">
<ele>332</ele>
<time>2021-06-16T00:23:25Z</time></trkpt>
<trkpt lat="31.76864" lon="34.97036">
<ele>334</ele>
<time>2021-06-16T00:23:34Z</time></trkpt>
<trkpt lat="31.76897" lon="34.96993">
<ele>334</ele>
<time>2021-06-16T00:23:44Z</time></trkpt>
<trkpt lat="31.76903" lon="34.96983">
<ele>334</ele>
<time>2021-06-16T00:23:46Z</time></trkpt>
<trkpt lat="31.76908" lon="34.96969">
<ele>334</ele>
<time>2021-06-16T00:23:49Z</time></trkpt>
<trkpt lat="31.76912" lon="34.96952">
<ele>333</ele>
<time>2021-06-16T00:23:52Z</time></trkpt>
<trkpt lat="31.7691" lon="34.96883">
<ele>326</ele>
<time>2021-06-16T00:24:04Z</time></trkpt>
<trkpt lat="31.76912" lon="34.96813">
<ele>323</ele>
<time>2021-06-16T00:24:16Z</time></trkpt>
<trkpt lat="31.76912" lon="34.96792">
<ele>322</ele>
<time>2021-06-16T00:24:19Z</time></trkpt>
<trkpt lat="31.76908" lon="34.96742">
<ele>318</ele>
<time>2021-06-16T00:24:28Z</time></trkpt>
<trkpt lat="31.76902" lon="34.96717">
<ele>317</ele>
<time>2021-06-16T00:24:32Z</time></trkpt>
<trkpt lat="31.76881" lon="34.96655">
<ele>309</ele>
<time>2021-06-16T00:24:44Z</time></trkpt>
<trkpt lat="31.76879" lon="34.96643">
<ele>309</ele>
<time>2021-06-16T00:24:46Z</time></trkpt>
<trkpt lat="31.76881" lon="34.96603">
<ele>312</ele>
<time>2021-06-16T00:24:53Z</time></trkpt>
<trkpt lat="31.7688" lon="34.96594">
<ele>312</ele>
<time>2021-06-16T00:24:54Z</time></trkpt>
<trkpt lat="31.76873" lon="34.96577">
<ele>310</ele>
<time>2021-06-16T00:24:57Z</time></trkpt>
<trkpt lat="31.76843" lon="34.96543">
<ele>304</ele>
<time>2021-06-16T00:25:06Z</time></trkpt>
<trkpt lat="31.76835" lon="34.9653">
<ele>303</ele>
<time>2021-06-16T00:25:08Z</time></trkpt>
<trkpt lat="31.76815" lon="34.96492">
<ele>301</ele>
<time>2021-06-16T00:25:16Z</time></trkpt>
<trkpt lat="31.7681" lon="34.96479">
<ele>299</ele>
<time>2021-06-16T00:25:18Z</time></trkpt>
<trkpt lat="31.76808" lon="34.96458">
<ele>298</ele>
<time>2021-06-16T00:25:22Z</time></trkpt>
<trkpt lat="31.7681" lon="34.96449">
<ele>299</ele>
<time>2021-06-16T00:25:24Z</time></trkpt>
<trkpt lat="31.7682" lon="34.96425">
<ele>302</ele>
<time>2021-06-16T00:25:28Z</time></trkpt>
<trkpt lat="31.76857" lon="34.96361">
<ele>303</ele>
<time>2021-06-16T00:25:41Z</time></trkpt>
<trkpt lat="31.76867" lon="34.96349">
<ele>303</ele>
<time>2021-06-16T00:25:44Z</time></trkpt>
<trkpt lat="31.76878" lon="34.96343">
<ele>304</ele>
<time>2021-06-16T00:25:47Z</time></trkpt>
<trkpt lat="31.76932" lon="34.96353">
<ele>316</ele>
<time>2021-06-16T00:25:58Z</time></trkpt>
<trkpt lat="31.76949" lon="34.96352">
<ele>318</ele>
<time>2021-06-16T00:26:01Z</time></trkpt>
<trkpt lat="31.76959" lon="34.9635">
<ele>319</ele>
<time>2021-06-16T00:26:03Z</time></trkpt>
<trkpt lat="31.76971" lon="34.96342">
<ele>320</ele>
<time>2021-06-16T00:26:06Z</time></trkpt>
<trkpt lat="31.77006" lon="34.96303">
<ele>319</ele>
<time>2021-06-16T00:26:15Z</time></trkpt>
<trkpt lat="31.77017" lon="34.96287">
<ele>319</ele>
<time>2021-06-16T00:26:19Z</time></trkpt>
<trkpt lat="31.77066" lon="34.96206">
<ele>324</ele>
<time>2021-06-16T00:26:36Z</time></trkpt>
<trkpt lat="31.77081" lon="34.96173">
<ele>323</ele>
<time>2021-06-16T00:26:42Z</time></trkpt>
<trkpt lat="31.7709" lon="34.96158">
<ele>321</ele>
<time>2021-06-16T00:26:45Z</time></trkpt>
<trkpt lat="31.77098" lon="34.9615">
<ele>320</ele>
<time>2021-06-16T00:26:47Z</time></trkpt>
<trkpt lat="31.77108" lon="34.96144">
<ele>320</ele>
<time>2021-06-16T00:26:50Z</time></trkpt>
<trkpt lat="31.77129" lon="34.96138">
<ele>321</ele>
<time>2021-06-16T00:26:54Z</time></trkpt>
<trkpt lat="31.77141" lon="34.96138">
<ele>323</ele>
<time>2021-06-16T00:26:56Z</time></trkpt>
<trkpt lat="31.7717" lon="34.96148">
<ele>329</ele>
<time>2021-06-16T00:27:03Z</time></trkpt>
<trkpt lat="31.77176" lon="34.96152">
<ele>330</ele>
<time>2021-06-16T00:27:04Z</time></trkpt>
<trkpt lat="31.77184" lon="34.96166">
<ele>333</ele>
<time>2021-06-16T00:27:07Z</time></trkpt>
<trkpt lat="31.77193" lon="34.96201">
<ele>338</ele>
<time>2021-06-16T00:27:13Z</time></trkpt>
<trkpt lat="31.77193" lon="34.962">
<ele>338</ele>
<time>2021-06-16T00:27:13Z</time></trkpt>
<trkpt lat="31.77207" lon="34.96252">
<ele>345</ele>
<time>2021-06-16T00:27:22Z</time></trkpt>
<trkpt lat="31.77208" lon="34.96263">
<ele>345</ele>
<time>2021-06-16T00:27:24Z</time></trkpt>
<trkpt lat="31.77203" lon="34.96278">
<ele>346</ele>
<time>2021-06-16T00:27:27Z</time></trkpt>
<trkpt lat="31.77194" lon="34.9629">
<ele>346</ele>
<time>2021-06-16T00:27:30Z</time></trkpt>
<trkpt lat="31.77078" lon="34.9635">
<ele>338</ele>
<time>2021-06-16T00:27:55Z</time></trkpt>
<trkpt lat="31.77001" lon="34.96397">
<ele>328</ele>
<time>2021-06-16T00:28:13Z</time></trkpt>
<trkpt lat="31.76993" lon="34.96404">
<ele>328</ele>
<time>2021-06-16T00:28:15Z</time></trkpt>
<trkpt lat="31.76983" lon="34.96422">
<ele>329</ele>
<time>2021-06-16T00:28:18Z</time></trkpt>
<trkpt lat="31.76981" lon="34.96434">
<ele>331</ele>
<time>2021-06-16T00:28:20Z</time></trkpt>
<trkpt lat="31.76984" lon="34.96454">
<ele>333</ele>
<time>2021-06-16T00:28:24Z</time></trkpt>
<trkpt lat="31.76991" lon="34.96464">
<ele>334</ele>
<time>2021-06-16T00:28:26Z</time></trkpt>
<trkpt lat="31.77033" lon="34.96488">
<ele>337</ele>
<time>2021-06-16T00:28:35Z</time></trkpt>
<trkpt lat="31.77083" lon="34.96508">
<ele>338</ele>
<time>2021-06-16T00:28:46Z</time></trkpt>
<trkpt lat="31.77105" lon="34.96522">
<ele>338</ele>
<time>2021-06-16T00:28:51Z</time></trkpt>
<trkpt lat="31.77119" lon="34.96537">
<ele>339</ele>
<time>2021-06-16T00:28:55Z</time></trkpt>
<trkpt lat="31.77125" lon="34.96547">
<ele>340</ele>
<time>2021-06-16T00:28:57Z</time></trkpt>
<trkpt lat="31.7713" lon="34.96561">
<ele>341</ele>
<time>2021-06-16T00:28:59Z</time></trkpt>
<trkpt lat="31.77132" lon="34.96574">
<ele>343</ele>
<time>2021-06-16T00:29:02Z</time></trkpt>
<trkpt lat="31.77132" lon="34.96612">
<ele>346</ele>
<time>2021-06-16T00:29:08Z</time></trkpt>
<trkpt lat="31.77126" lon="34.96639">
<ele>348</ele>
<time>2021-06-16T00:29:13Z</time></trkpt>
<trkpt lat="31.77092" lon="34.96747">
<ele>357</ele>
<time>2021-06-16T00:29:33Z</time></trkpt>
<trkpt lat="31.77061" lon="34.96838">
<ele>359</ele>
<time>2021-06-16T00:29:49Z</time></trkpt>
<trkpt lat="31.77031" lon="34.96938">
<ele>361</ele>
<time>2021-06-16T00:30:07Z</time></trkpt>
<trkpt lat="31.77029" lon="34.96952">
<ele>362</ele>
<time>2021-06-16T00:30:10Z</time></trkpt>
<trkpt lat="31.7703" lon="34.97011">
<ele>365</ele>
<time>2021-06-16T00:30:20Z</time></trkpt>
<trkpt lat="31.77035" lon="34.97056">
<ele>369</ele>
<time>2021-06-16T00:30:27Z</time></trkpt>
<trkpt lat="31.77047" lon="34.97099">
<ele>374</ele>
<time>2021-06-16T00:30:35Z</time></trkpt>
<trkpt lat="31.77054" lon="34.97105">
<ele>374</ele>
<time>2021-06-16T00:30:37Z</time></trkpt>
<trkpt lat="31.7706" lon="34.97108">
<ele>374</ele>
<time>2021-06-16T00:30:38Z</time></trkpt>
<trkpt lat="31.77067" lon="34.97107">
<ele>373</ele>
<time>2021-06-16T00:30:40Z</time></trkpt>
<trkpt lat="31.77073" lon="34.97104">
<ele>372</ele>
<time>2021-06-16T00:30:41Z</time></trkpt>
<trkpt lat="31.77121" lon="34.97061">
<ele>367</ele>
<time>2021-06-16T00:30:53Z</time></trkpt>
<trkpt lat="31.77141" lon="34.97046">
<ele>367</ele>
<time>2021-06-16T00:30:58Z</time></trkpt>
<trkpt lat="31.77152" lon="34.97044">
<ele>367</ele>
<time>2021-06-16T00:31:00Z</time></trkpt>
<trkpt lat="31.77159" lon="34.97045">
<ele>368</ele>
<time>2021-06-16T00:31:01Z</time></trkpt>
<trkpt lat="31.77166" lon="34.97049">
<ele>369</ele>
<time>2021-06-16T00:31:03Z</time></trkpt>
<trkpt lat="31.7718" lon="34.97067">
<ele>369</ele>
<time>2021-06-16T00:31:07Z</time></trkpt>
<trkpt lat="31.77198" lon="34.97126">
<ele>373</ele>
<time>2021-06-16T00:31:18Z</time></trkpt>
<trkpt lat="31.77206" lon="34.97147">
<ele>374</ele>
<time>2021-06-16T00:31:22Z</time></trkpt>
<trkpt lat="31.77214" lon="34.97161">
<ele>374</ele>
<time>2021-06-16T00:31:25Z</time></trkpt>
<trkpt lat="31.7725" lon="34.97208">
<ele>371</ele>
<time>2021-06-16T00:31:35Z</time></trkpt>
<trkpt lat="31.77258" lon="34.97222">
<ele>371</ele>
<time>2021-06-16T00:31:38Z</time></trkpt>
<trkpt lat="31.77263" lon="34.97244">
<ele>373</ele>
<time>2021-06-16T00:31:42Z</time></trkpt>
<trkpt lat="31.7726" lon="34.97259">
<ele>374</ele>
<time>2021-06-16T00:31:45Z</time></trkpt>
<trkpt lat="31.77254" lon="34.97276">
<ele>374</ele>
<time>2021-06-16T00:31:48Z</time></trkpt>
<trkpt lat="31.77242" lon="34.97299">
<ele>376</ele>
<time>2021-06-16T00:31:53Z</time></trkpt>
<trkpt lat="31.7722" lon="34.97325">
<ele>380</ele>
<time>2021-06-16T00:31:59Z</time></trkpt>
<trkpt lat="31.7718" lon="34.97361">
<ele>388</ele>
<time>2021-06-16T00:32:09Z</time></trkpt>
<trkpt lat="31.77169" lon="34.97376">
<ele>390</ele>
<time>2021-06-16T00:32:12Z</time></trkpt>
<trkpt lat="31.7716" lon="34.97391">
<ele>390</ele>
<time>2021-06-16T00:32:15Z</time></trkpt>
<trkpt lat="31.77156" lon="34.97405">
<ele>389</ele>
<time>2021-06-16T00:32:18Z</time></trkpt>
<trkpt lat="31.77153" lon="34.97419">
<ele>388</ele>
<time>2021-06-16T00:32:20Z</time></trkpt>
<trkpt lat="31.77154" lon="34.97428">
<ele>388</ele>
<time>2021-06-16T00:32:22Z</time></trkpt>
<trkpt lat="31.77154" lon="34.97427">
<ele>388</ele>
<time>2021-06-16T00:32:22Z</time></trkpt>
<trkpt lat="31.77154" lon="34.97448">
<ele>387</ele>
<time>2021-06-16T00:32:26Z</time></trkpt>
<trkpt lat="31.77156" lon="34.97461">
<ele>387</ele>
<time>2021-06-16T00:32:28Z</time></trkpt>
<trkpt lat="31.77161" lon="34.97473">
<ele>387</ele>
<time>2021-06-16T00:32:30Z</time></trkpt>
<trkpt lat="31.77175" lon="34.97497">
<ele>387</ele>
<time>2021-06-16T00:32:35Z</time></trkpt>
<trkpt lat="31.77229" lon="34.97561">
<ele>385</ele>
<time>2021-06-16T00:32:50Z</time></trkpt>
<trkpt lat="31.77274" lon="34.97626">
<ele>385</ele>
<time>2021-06-16T00:33:05Z</time></trkpt>
<trkpt lat="31.77293" lon="34.97658">
<ele>384</ele>
<time>2021-06-16T00:33:11Z</time></trkpt>
<trkpt lat="31.77298" lon="34.97671">
<ele>383</ele>
<time>2021-06-16T00:33:14Z</time></trkpt>
<trkpt lat="31.77303" lon="34.97701">
<ele>382</ele>
<time>2021-06-16T00:33:19Z</time></trkpt>
<trkpt lat="31.773" lon="34.97723">
<ele>382</ele>
<time>2021-06-16T00:33:23Z</time></trkpt>
<trkpt lat="31.773" lon="34.97747">
<ele>382</ele>
<time>2021-06-16T00:33:27Z</time></trkpt>
<trkpt lat="31.77296" lon="34.97772">
<ele>382</ele>
<time>2021-06-16T00:33:31Z</time></trkpt>
<trkpt lat="31.77297" lon="34.9779">
<ele>381</ele>
<time>2021-06-16T00:33:34Z</time></trkpt>
<trkpt lat="31.77306" lon="34.97842">
<ele>378</ele>
<time>2021-06-16T00:33:43Z</time></trkpt>
<trkpt lat="31.77306" lon="34.97841">
<ele>378</ele>
<time>2021-06-16T00:33:44Z</time></trkpt>
<trkpt lat="31.77312" lon="34.9786">
<ele>377</ele>
<time>2021-06-16T00:33:47Z</time></trkpt>
<trkpt lat="31.77337" lon="34.97908">
<ele>378</ele>
<time>2021-06-16T00:33:57Z</time></trkpt>
<trkpt lat="31.77349" lon="34.97912">
<ele>380</ele>
<time>2021-06-16T00:33:59Z</time></trkpt>
<trkpt lat="31.77374" lon="34.97912">
<ele>384</ele>
<time>2021-06-16T00:34:04Z</time></trkpt>
<trkpt lat="31.77388" lon="34.97904">
<ele>385</ele>
<time>2021-06-16T00:34:07Z</time></trkpt>
<trkpt lat="31.77401" lon="34.9789">
<ele>386</ele>
<time>2021-06-16T00:34:11Z</time></trkpt>
<trkpt lat="31.7742" lon="34.97843">
<ele>383</ele>
<time>2021-06-16T00:34:20Z</time></trkpt>
<trkpt lat="31.77445" lon="34.97821">
<ele>383</ele>
<time>2021-06-16T00:34:26Z</time></trkpt>
<trkpt lat="31.7748" lon="34.97819">
<ele>387</ele>
<time>2021-06-16T00:34:33Z</time></trkpt>
<trkpt lat="31.7755" lon="34.97836">
<ele>395</ele>
<time>2021-06-16T00:34:47Z</time></trkpt>
<trkpt lat="31.7758" lon="34.97841">
<ele>397</ele>
<time>2021-06-16T00:34:53Z</time></trkpt>
<trkpt lat="31.77594" lon="34.97824">
<ele>396</ele>
<time>2021-06-16T00:34:57Z</time></trkpt>
<trkpt lat="31.77635" lon="34.9773">
<ele>392</ele>
<time>2021-06-16T00:35:15Z</time></trkpt>
<trkpt lat="31.77642" lon="34.97719">
<ele>393</ele>
<time>2021-06-16T00:35:18Z</time></trkpt>
<trkpt lat="31.77592" lon="34.97665">
<ele>392</ele>
<time>2021-06-16T00:35:31Z</time></trkpt>
<trkpt lat="31.7758" lon="34.97651">
<ele>390</ele>
<time>2021-06-16T00:35:35Z</time></trkpt>
<trkpt lat="31.7758" lon="34.9765">
<ele>390</ele>
<time>2021-06-16T00:35:35Z</time></trkpt>
<trkpt lat="31.77564" lon="34.97626">
<ele>387</ele>
<time>2021-06-16T00:35:40Z</time></trkpt>
<trkpt lat="31.77557" lon="34.97609">
<ele>386</ele>
<time>2021-06-16T00:35:43Z</time></trkpt>
<trkpt lat="31.77554" lon="34.97596">
<ele>385</ele>
<time>2021-06-16T00:35:46Z</time></trkpt>
<trkpt lat="31.77552" lon="34.97583">
<ele>385</ele>
<time>2021-06-16T00:35:48Z</time></trkpt>
<trkpt lat="31.77554" lon="34.97566">
<ele>384</ele>
<time>2021-06-16T00:35:51Z</time></trkpt>
<trkpt lat="31.77559" lon="34.97548">
<ele>383</ele>
<time>2021-06-16T00:35:54Z</time></trkpt>
<trkpt lat="31.77584" lon="34.97487">
<ele>384</ele>
<time>2021-06-16T00:36:05Z</time></trkpt>
<trkpt lat="31.77593" lon="34.97468">
<ele>385</ele>
<time>2021-06-16T00:36:09Z</time></trkpt>
<trkpt lat="31.7759" lon="34.97448">
<ele>384</ele>
<time>2021-06-16T00:36:13Z</time></trkpt>
<trkpt lat="31.77583" lon="34.97432">
<ele>383</ele>
<time>2021-06-16T00:36:16Z</time></trkpt>
<trkpt lat="31.77566" lon="34.9741">
<ele>381</ele>
<time>2021-06-16T00:36:21Z</time></trkpt>
<trkpt lat="31.77536" lon="34.97379">
<ele>379</ele>
<time>2021-06-16T00:36:29Z</time></trkpt>
<trkpt lat="31.77529" lon="34.97369">
<ele>378</ele>
<time>2021-06-16T00:36:31Z</time></trkpt>
<trkpt lat="31.77523" lon="34.97356">
<ele>378</ele>
<time>2021-06-16T00:36:33Z</time></trkpt>
<trkpt lat="31.77519" lon="34.9734">
<ele>379</ele>
<time>2021-06-16T00:36:36Z</time></trkpt>
<trkpt lat="31.77519" lon="34.97325">
<ele>379</ele>
<time>2021-06-16T00:36:39Z</time></trkpt>
<trkpt lat="31.77521" lon="34.97311">
<ele>378</ele>
<time>2021-06-16T00:36:41Z</time></trkpt>
<trkpt lat="31.77542" lon="34.97246">
<ele>379</ele>
<time>2021-06-16T00:36:53Z</time></trkpt>
<trkpt lat="31.77546" lon="34.97228">
<ele>379</ele>
<time>2021-06-16T00:36:56Z</time></trkpt>
<trkpt lat="31.77547" lon="34.97211">
<ele>379</ele>
<time>2021-06-16T00:36:59Z</time></trkpt>
<trkpt lat="31.77546" lon="34.97129">
<ele>375</ele>
<time>2021-06-16T00:37:13Z</time></trkpt>
<trkpt lat="31.77552" lon="34.97103">
<ele>374</ele>
<time>2021-06-16T00:37:18Z</time></trkpt>
<trkpt lat="31.77558" lon="34.97091">
<ele>374</ele>
<time>2021-06-16T00:37:20Z</time></trkpt>
<trkpt lat="31.77564" lon="34.97086">
<ele>374</ele>
<time>2021-06-16T00:37:22Z</time></trkpt>
<trkpt lat="31.77579" lon="34.97079">
<ele>375</ele>
<time>2021-06-16T00:37:25Z</time></trkpt>
<trkpt lat="31.77611" lon="34.97075">
<ele>375</ele>
<time>2021-06-16T00:37:31Z</time></trkpt>
<trkpt lat="31.77639" lon="34.97069">
<ele>375</ele>
<time>2021-06-16T00:37:37Z</time></trkpt>
<trkpt lat="31.77671" lon="34.97058">
<ele>374</ele>
<time>2021-06-16T00:37:44Z</time></trkpt>
<trkpt lat="31.77679" lon="34.97053">
<ele>374</ele>
<time>2021-06-16T00:37:45Z</time></trkpt>
<trkpt lat="31.77691" lon="34.9704">
<ele>373</ele>
<time>2021-06-16T00:37:49Z</time></trkpt>
<trkpt lat="31.77694" lon="34.97033">
<ele>373</ele>
<time>2021-06-16T00:37:50Z</time></trkpt>
<trkpt lat="31.77697" lon="34.97025">
<ele>372</ele>
<time>2021-06-16T00:37:52Z</time></trkpt>
<trkpt lat="31.77698" lon="34.97004">
<ele>370</ele>
<time>2021-06-16T00:37:55Z</time></trkpt>
<trkpt lat="31.77688" lon="34.96925">
<ele>369</ele>
<time>2021-06-16T00:38:09Z</time></trkpt>
<trkpt lat="31.77686" lon="34.96881">
<ele>372</ele>
<time>2021-06-16T00:38:16Z</time></trkpt>
<trkpt lat="31.7768" lon="34.96858">
<ele>374</ele>
<time>2021-06-16T00:38:20Z</time></trkpt>
<trkpt lat="31.77668" lon="34.96832">
<ele>375</ele>
<time>2021-06-16T00:38:25Z</time></trkpt>
<trkpt lat="31.77657" lon="34.96816">
<ele>373</ele>
<time>2021-06-16T00:38:29Z</time></trkpt>
<trkpt lat="31.77625" lon="34.96779">
<ele>369</ele>
<time>2021-06-16T00:38:38Z</time></trkpt>
<trkpt lat="31.77594" lon="34.96747">
<ele>367</ele>
<time>2021-06-16T00:38:46Z</time></trkpt>
<trkpt lat="31.77587" lon="34.96738">
<ele>365</ele>
<time>2021-06-16T00:38:48Z</time></trkpt>
<trkpt lat="31.77581" lon="34.96724">
<ele>363</ele>
<time>2021-06-16T00:38:51Z</time></trkpt>
<trkpt lat="31.7758" lon="34.96714">
<ele>362</ele>
<time>2021-06-16T00:38:53Z</time></trkpt>
<trkpt lat="31.7758" lon="34.96706">
<ele>361</ele>
<time>2021-06-16T00:38:54Z</time></trkpt>
<trkpt lat="31.77585" lon="34.96695">
<ele>361</ele>
<time>2021-06-16T00:38:56Z</time></trkpt>
<trkpt lat="31.7759" lon="34.96688">
<ele>360</ele>
<time>2021-06-16T00:38:58Z</time></trkpt>
<trkpt lat="31.776" lon="34.9668">
<ele>359</ele>
<time>2021-06-16T00:39:00Z</time></trkpt>
<trkpt lat="31.77608" lon="34.96676">
<ele>358</ele>
<time>2021-06-16T00:39:02Z</time></trkpt>
<trkpt lat="31.77621" lon="34.96675">
<ele>358</ele>
<time>2021-06-16T00:39:04Z</time></trkpt>
<trkpt lat="31.77671" lon="34.96686">
<ele>360</ele>
<time>2021-06-16T00:39:15Z</time></trkpt>
<trkpt lat="31.77702" lon="34.96688">
<ele>360</ele>
<time>2021-06-16T00:39:21Z</time></trkpt>
<trkpt lat="31.77711" lon="34.96687">
<ele>360</ele>
<time>2021-06-16T00:39:23Z</time></trkpt>
<trkpt lat="31.77744" lon="34.96678">
<ele>357</ele>
<time>2021-06-16T00:39:29Z</time></trkpt>
<trkpt lat="31.77796" lon="34.96653">
<ele>351</ele>
<time>2021-06-16T00:39:41Z</time></trkpt>
<trkpt lat="31.77814" lon="34.96649">
<ele>351</ele>
<time>2021-06-16T00:39:44Z</time></trkpt>
<trkpt lat="31.77827" lon="34.96657">
<ele>352</ele>
<time>2021-06-16T00:39:47Z</time></trkpt>
<trkpt lat="31.77843" lon="34.96679">
<ele>351</ele>
<time>2021-06-16T00:39:52Z</time></trkpt>
<trkpt lat="31.77846" lon="34.9669">
<ele>351</ele>
<time>2021-06-16T00:39:54Z</time></trkpt>
<trkpt lat="31.77855" lon="34.96742">
<ele>353</ele>
<time>2021-06-16T00:40:03Z</time></trkpt>
<trkpt lat="31.77884" lon="34.96872">
<ele>354</ele>
<time>2021-06-16T00:40:26Z</time></trkpt>
<trkpt lat="31.77889" lon="34.96909">
<ele>356</ele>
<time>2021-06-16T00:40:33Z</time></trkpt>
<trkpt lat="31.77892" lon="34.96921">
<ele>356</ele>
<time>2021-06-16T00:40:35Z</time></trkpt>
<trkpt lat="31.77901" lon="34.96927">
<ele>356</ele>
<time>2021-06-16T00:40:37Z</time></trkpt>
<trkpt lat="31.77909" lon="34.96919">
<ele>354</ele>
<time>2021-06-16T00:40:39Z</time></trkpt>
<trkpt lat="31.77914" lon="34.96898">
<ele>351</ele>
<time>2021-06-16T00:40:43Z</time></trkpt>
<trkpt lat="31.77923" lon="34.96833">
<ele>345</ele>
<time>2021-06-16T00:40:54Z</time></trkpt>
<trkpt lat="31.77922" lon="34.96794">
<ele>342</ele>
<time>2021-06-16T00:41:00Z</time></trkpt>
<trkpt lat="31.77923" lon="34.96767">
<ele>340</ele>
<time>2021-06-16T00:41:05Z</time></trkpt>
<trkpt lat="31.77929" lon="34.96745">
<ele>339</ele>
<time>2021-06-16T00:41:09Z</time></trkpt>
<trkpt lat="31.77934" lon="34.9671">
<ele>338</ele>
<time>2021-06-16T00:41:15Z</time></trkpt>
<trkpt lat="31.77948" lon="34.96657">
<ele>336</ele>
<time>2021-06-16T00:41:24Z</time></trkpt>
<trkpt lat="31.77964" lon="34.96627">
<ele>334</ele>
<time>2021-06-16T00:41:30Z</time></trkpt>
<trkpt lat="31.77997" lon="34.96572">
<ele>325</ele>
<time>2021-06-16T00:41:42Z</time></trkpt>
<trkpt lat="31.78005" lon="34.96553">
<ele>324</ele>
<time>2021-06-16T00:41:46Z</time></trkpt>
<trkpt lat="31.78013" lon="34.96539">
<ele>323</ele>
<time>2021-06-16T00:41:48Z</time></trkpt>
<trkpt lat="31.78047" lon="34.965">
<ele>317</ele>
<time>2021-06-16T00:41:58Z</time></trkpt>
<trkpt lat="31.78058" lon="34.9649">
<ele>315</ele>
<time>2021-06-16T00:42:01Z</time></trkpt>
<trkpt lat="31.78088" lon="34.9647">
<ele>311</ele>
<time>2021-06-16T00:42:08Z</time></trkpt>
<trkpt lat="31.78093" lon="34.96462">
<ele>310</ele>
<time>2021-06-16T00:42:09Z</time></trkpt>
<trkpt lat="31.78101" lon="34.96442">
<ele>308</ele>
<time>2021-06-16T00:42:13Z</time></trkpt>
<trkpt lat="31.7811" lon="34.96429">
<ele>306</ele>
<time>2021-06-16T00:42:16Z</time></trkpt>
<trkpt lat="31.78139" lon="34.96394">
<ele>303</ele>
<time>2021-06-16T00:42:24Z</time></trkpt>
<trkpt lat="31.78161" lon="34.96354">
<ele>300</ele>
<time>2021-06-16T00:42:32Z</time></trkpt>
<trkpt lat="31.78175" lon="34.96316">
<ele>299</ele>
<time>2021-06-16T00:42:39Z</time></trkpt>
<trkpt lat="31.78194" lon="34.96276">
<ele>300</ele>
<time>2021-06-16T00:42:47Z</time></trkpt>
<trkpt lat="31.78228" lon="34.96197">
<ele>300</ele>
<time>2021-06-16T00:43:02Z</time></trkpt>
<trkpt lat="31.78253" lon="34.96127">
<ele>300</ele>
<time>2021-06-16T00:43:15Z</time></trkpt>
<trkpt lat="31.78268" lon="34.96051">
<ele>302</ele>
<time>2021-06-16T00:43:29Z</time></trkpt>
<trkpt lat="31.78274" lon="34.96039">
<ele>301</ele>
<time>2021-06-16T00:43:31Z</time></trkpt>
<trkpt lat="31.78276" lon="34.96026">
<ele>301</ele>
<time>2021-06-16T00:43:33Z</time></trkpt>
<trkpt lat="31.78276" lon="34.96015">
<ele>301</ele>
<time>2021-06-16T00:43:35Z</time></trkpt>
<trkpt lat="31.78265" lon="34.95996">
<ele>304</ele>
<time>2021-06-16T00:43:39Z</time></trkpt>
<trkpt lat="31.78261" lon="34.95985">
<ele>306</ele>
<time>2021-06-16T00:43:41Z</time></trkpt>
<trkpt lat="31.78268" lon="34.95971">
<ele>305</ele>
<time>2021-06-16T00:43:44Z</time></trkpt>
<trkpt lat="31.78296" lon="34.95944">
<ele>301</ele>
<time>2021-06-16T00:43:51Z</time></trkpt>
<trkpt lat="31.78345" lon="34.95921">
<ele>293</ele>
<time>2021-06-16T00:44:02Z</time></trkpt>
<trkpt lat="31.784" lon="34.95889">
<ele>288</ele>
<time>2021-06-16T00:44:14Z</time></trkpt>
<trkpt lat="31.785" lon="34.95792">
<ele>289</ele>
<time>2021-06-16T00:44:40Z</time></trkpt>
<trkpt lat="31.78534" lon="34.95762">
<ele>292</ele>
<time>2021-06-16T00:44:48Z</time></trkpt>
<trkpt lat="31.78582" lon="34.95716">
<ele>293</ele>
<time>2021-06-16T00:45:01Z</time></trkpt>
<trkpt lat="31.78618" lon="34.95688">
<ele>293</ele>
<time>2021-06-16T00:45:09Z</time></trkpt>
<trkpt lat="31.78651" lon="34.95652">
<ele>292</ele>
<time>2021-06-16T00:45:18Z</time></trkpt>
<trkpt lat="31.78665" lon="34.95641">
<ele>292</ele>
<time>2021-06-16T00:45:22Z</time></trkpt>
<trkpt lat="31.78677" lon="34.95634">
<ele>292</ele>
<time>2021-06-16T00:45:25Z</time></trkpt>
<trkpt lat="31.78722" lon="34.95613">
<ele>289</ele>
<time>2021-06-16T00:45:34Z</time></trkpt>
<trkpt lat="31.78769" lon="34.95584">
<ele>287</ele>
<time>2021-06-16T00:45:45Z</time></trkpt>
<trkpt lat="31.7879" lon="34.95564">
<ele>284</ele>
<time>2021-06-16T00:45:50Z</time></trkpt>
<trkpt lat="31.78809" lon="34.95549">
<ele>282</ele>
<time>2021-06-16T00:45:55Z</time></trkpt>
<trkpt lat="31.78816" lon="34.9554">
<ele>282</ele>
<time>2021-06-16T00:45:57Z</time></trkpt>
<trkpt lat="31.78821" lon="34.9553">
<ele>282</ele>
<time>2021-06-16T00:45:59Z</time></trkpt>
<trkpt lat="31.78824" lon="34.9554">
<ele>281</ele>
<time>2021-06-16T00:46:01Z</time></trkpt>
<trkpt lat="31.78822" lon="34.95547">
<ele>281</ele>
<time>2021-06-16T00:46:02Z</time></trkpt>
<trkpt lat="31.78803" lon="34.9557">
<ele>283</ele>
<time>2021-06-16T00:46:07Z</time></trkpt>
<trkpt lat="31.78788" lon="34.95592">
<ele>284</ele>
<time>2021-06-16T00:46:12Z</time></trkpt>
<trkpt lat="31.78777" lon="34.95626">
<ele>281</ele>
<time>2021-06-16T00:46:18Z</time></trkpt>
<trkpt lat="31.78768" lon="34.95649">
<ele>279</ele>
<time>2021-06-16T00:46:23Z</time></trkpt>
<trkpt lat="31.78756" lon="34.9567">
<ele>278</ele>
<time>2021-06-16T00:46:27Z</time></trkpt>
<trkpt lat="31.78751" lon="34.95676">
<ele>278</ele>
<time>2021-06-16T00:46:28Z</time></trkpt>
<trkpt lat="31.78736" lon="34.95686">
<ele>279</ele>
<time>2021-06-16T00:46:32Z</time></trkpt>
<trkpt lat="31.78688" lon="34.957">
<ele>282</ele>
<time>2021-06-16T00:46:42Z</time></trkpt>
<trkpt lat="31.78673" lon="34.95709">
<ele>282</ele>
<time>2021-06-16T00:46:45Z</time></trkpt>
<trkpt lat="31.78669" lon="34.95714">
<ele>282</ele>
<time>2021-06-16T00:46:46Z</time></trkpt>
<trkpt lat="31.78667" lon="34.95723">
<ele>281</ele>
<time>2021-06-16T00:46:48Z</time></trkpt>
<trkpt lat="31.78668" lon="34.95731">
<ele>280</ele>
<time>2021-06-16T00:46:49Z</time></trkpt>
<trkpt lat="31.78673" lon="34.95745">
<ele>278</ele>
<time>2021-06-16T00:46:52Z</time></trkpt>
<trkpt lat="31.78674" lon="34.95759">
<ele>276</ele>
<time>2021-06-16T00:46:54Z</time></trkpt>
<trkpt lat="31.7867" lon="34.95768">
<ele>275</ele>
<time>2021-06-16T00:46:56Z</time></trkpt>
<trkpt lat="31.78663" lon="34.95774">
<ele>275</ele>
<time>2021-06-16T00:46:58Z</time></trkpt>
<trkpt lat="31.78647" lon="34.95783">
<ele>275</ele>
<time>2021-06-16T00:47:01Z</time></trkpt>
<trkpt lat="31.78623" lon="34.95788">
<ele>277</ele>
<time>2021-06-16T00:47:06Z</time></trkpt>
<trkpt lat="31.78601" lon="34.95796">
<ele>278</ele>
<time>2021-06-16T00:47:11Z</time></trkpt>
<trkpt lat="31.78575" lon="34.95816">
<ele>278</ele>
<time>2021-06-16T00:47:17Z</time></trkpt>
<trkpt lat="31.78569" lon="34.95827">
<ele>276</ele>
<time>2021-06-16T00:47:19Z</time></trkpt>
<trkpt lat="31.7857" lon="34.95836">
<ele>275</ele>
<time>2021-06-16T00:47:21Z</time></trkpt>
<trkpt lat="31.78575" lon="34.95842">
<ele>273</ele>
<time>2021-06-16T00:47:22Z</time></trkpt>
<trkpt lat="31.78584" lon="34.95848">
<ele>271</ele>
<time>2021-06-16T00:47:24Z</time></trkpt>
<trkpt lat="31.7859" lon="34.9585">
<ele>270</ele>
<time>2021-06-16T00:47:26Z</time></trkpt>
<trkpt lat="31.78609" lon="34.9585">
<ele>268</ele>
<time>2021-06-16T00:47:29Z</time></trkpt>
<trkpt lat="31.7866" lon="34.95837">
<ele>265</ele>
<time>2021-06-16T00:47:40Z</time></trkpt>
<trkpt lat="31.78694" lon="34.95833">
<ele>262</ele>
<time>2021-06-16T00:47:47Z</time></trkpt>
<trkpt lat="31.78704" lon="34.95835">
<ele>261</ele>
<time>2021-06-16T00:47:49Z</time></trkpt>
<trkpt lat="31.78713" lon="34.95844">
<ele>259</ele>
<time>2021-06-16T00:47:51Z</time></trkpt>
<trkpt lat="31.78674" lon="34.95873">
<ele>258</ele>
<time>2021-06-16T00:48:00Z</time></trkpt>
<trkpt lat="31.78618" lon="34.95922">
<ele>255</ele>
<time>2021-06-16T00:48:14Z</time></trkpt>
<trkpt lat="31.78586" lon="34.95943">
<ele>256</ele>
<time>2021-06-16T00:48:22Z</time></trkpt>
<trkpt lat="31.78578" lon="34.95951">
<ele>256</ele>
<time>2021-06-16T00:48:24Z</time></trkpt>
<trkpt lat="31.78572" lon="34.95959">
<ele>256</ele>
<time>2021-06-16T00:48:26Z</time></trkpt>
<trkpt lat="31.78569" lon="34.9597">
<ele>255</ele>
<time>2021-06-16T00:48:28Z</time></trkpt>
<trkpt lat="31.7857" lon="34.95986">
<ele>253</ele>
<time>2021-06-16T00:48:30Z</time></trkpt>
<trkpt lat="31.78584" lon="34.96031">
<ele>249</ele>
<time>2021-06-16T00:48:38Z</time></trkpt>
<trkpt lat="31.78591" lon="34.96065">
<ele>249</ele>
<time>2021-06-16T00:48:44Z</time></trkpt>
<trkpt lat="31.78591" lon="34.96073">
<ele>249</ele>
<time>2021-06-16T00:48:46Z</time></trkpt>
<trkpt lat="31.78578" lon="34.96137">
<ele>253</ele>
<time>2021-06-16T00:48:57Z</time></trkpt>
<trkpt lat="31.78585" lon="34.9616">
<ele>254</ele>
<time>2021-06-16T00:49:01Z</time></trkpt>
<trkpt lat="31.78592" lon="34.96169">
<ele>254</ele>
<time>2021-06-16T00:49:03Z</time></trkpt>
<trkpt lat="31.78606" lon="34.9618">
<ele>256</ele>
<time>2021-06-16T00:49:07Z</time></trkpt>
<trkpt lat="31.78619" lon="34.96185">
<ele>258</ele>
<time>2021-06-16T00:49:09Z</time></trkpt>
<trkpt lat="31.78637" lon="34.96189">
<ele>259</ele>
<time>2021-06-16T00:49:13Z</time></trkpt>
<trkpt lat="31.78673" lon="34.96204">
<ele>263</ele>
<time>2021-06-16T00:49:21Z</time></trkpt>
<trkpt lat="31.78737" lon="34.9624">
<ele>269</ele>
<time>2021-06-16T00:49:35Z</time></trkpt>
<trkpt lat="31.78737" lon="34.96239">
<ele>269</ele>
<time>2021-06-16T00:49:35Z</time></trkpt>
<trkpt lat="31.78768" lon="34.96255">
<ele>271</ele>
<time>2021-06-16T00:49:42Z</time></trkpt>
<trkpt lat="31.7879" lon="34.96263">
<ele>270</ele>
<time>2021-06-16T00:49:46Z</time></trkpt>
<trkpt lat="31.78801" lon="34.96271">
<ele>270</ele>
<time>2021-06-16T00:49:49Z</time></trkpt>
<trkpt lat="31.78806" lon="34.96279">
<ele>270</ele>
<time>2021-06-16T00:49:51Z</time></trkpt>
<trkpt lat="31.78807" lon="34.9629">
<ele>270</ele>
<time>2021-06-16T00:49:53Z</time></trkpt>
<trkpt lat="31.78804" lon="34.96308">
<ele>272</ele>
<time>2021-06-16T00:49:56Z</time></trkpt>
<trkpt lat="31.78799" lon="34.96321">
<ele>273</ele>
<time>2021-06-16T00:49:58Z</time></trkpt>
<trkpt lat="31.78748" lon="34.9641">
<ele>275</ele>
<time>2021-06-16T00:50:16Z</time></trkpt>
<trkpt lat="31.78711" lon="34.96459">
<ele>275</ele>
<time>2021-06-16T00:50:28Z</time></trkpt>
<trkpt lat="31.78701" lon="34.96466">
<ele>276</ele>
<time>2021-06-16T00:50:30Z</time></trkpt>
<trkpt lat="31.78683" lon="34.96471">
<ele>278</ele>
<time>2021-06-16T00:50:34Z</time></trkpt>
<trkpt lat="31.78675" lon="34.96475">
<ele>279</ele>
<time>2021-06-16T00:50:35Z</time></trkpt>
<trkpt lat="31.78665" lon="34.96485">
<ele>279</ele>
<time>2021-06-16T00:50:38Z</time></trkpt>
<trkpt lat="31.78661" lon="34.96494">
<ele>279</ele>
<time>2021-06-16T00:50:40Z</time></trkpt>
<trkpt lat="31.78661" lon="34.96506">
<ele>279</ele>
<time>2021-06-16T00:50:42Z</time></trkpt>
<trkpt lat="31.78667" lon="34.96516">
<ele>280</ele>
<time>2021-06-16T00:50:44Z</time></trkpt>
<trkpt lat="31.78714" lon="34.96501">
<ele>272</ele>
<time>2021-06-16T00:50:54Z</time></trkpt>
<trkpt lat="31.78748" lon="34.96496">
<ele>268</ele>
<time>2021-06-16T00:51:01Z</time></trkpt>
<trkpt lat="31.7876" lon="34.96493">
<ele>266</ele>
<time>2021-06-16T00:51:03Z</time></trkpt>
<trkpt lat="31.78807" lon="34.96472">
<ele>262</ele>
<time>2021-06-16T00:51:13Z</time></trkpt>
<trkpt lat="31.78873" lon="34.96479">
<ele>255</ele>
<time>2021-06-16T00:51:26Z</time></trkpt>
<trkpt lat="31.78935" lon="34.96472">
<ele>249</ele>
<time>2021-06-16T00:51:39Z</time></trkpt>
<trkpt lat="31.78963" lon="34.96464">
<ele>245</ele>
<time>2021-06-16T00:51:45Z</time></trkpt>
<trkpt lat="31.79008" lon="34.96442">
<ele>240</ele>
<time>2021-06-16T00:51:54Z</time></trkpt>
<trkpt lat="31.79018" lon="34.96436">
<ele>239</ele>
<time>2021-06-16T00:51:57Z</time></trkpt>
<trkpt lat="31.79078" lon="34.96409">
<ele>234</ele>
<time>2021-06-16T00:52:09Z</time></trkpt>
<trkpt lat="31.79121" lon="34.96397">
<ele>229</ele>
<time>2021-06-16T00:52:18Z</time></trkpt>
<trkpt lat="31.79144" lon="34.96394">
<ele>226</ele>
<time>2021-06-16T00:52:23Z</time></trkpt>
<trkpt lat="31.79166" lon="34.96384">
<ele>224</ele>
<time>2021-06-16T00:52:28Z</time></trkpt>
<trkpt lat="31.7918" lon="34.96374">
<ele>223</ele>
<time>2021-06-16T00:52:31Z</time></trkpt>
<trkpt lat="31.79201" lon="34.96353">
<ele>223</ele>
<time>2021-06-16T00:52:36Z</time></trkpt>
<trkpt lat="31.79224" lon="34.96325">
<ele>221</ele>
<time>2021-06-16T00:52:43Z</time></trkpt>
<trkpt lat="31.79248" lon="34.96301">
<ele>220</ele>
<time>2021-06-16T00:52:49Z</time></trkpt>
<trkpt lat="31.79287" lon="34.96269">
<ele>215</ele>
<time>2021-06-16T00:52:59Z</time></trkpt>
<trkpt lat="31.79348" lon="34.96201">
<ele>211</ele>
<time>2021-06-16T00:53:16Z</time></trkpt>
<trkpt lat="31.79383" lon="34.96172">
<ele>209</ele>
<time>2021-06-16T00:53:24Z</time></trkpt>
<trkpt lat="31.79404" lon="34.96148">
<ele>208</ele>
<time>2021-06-16T00:53:30Z</time></trkpt>
<trkpt lat="31.79423" lon="34.96121">
<ele>207</ele>
<time>2021-06-16T00:53:36Z</time></trkpt>
<trkpt lat="31.79437" lon="34.96117">
<ele>206</ele>
<time>2021-06-16T00:53:39Z</time></trkpt>
<trkpt lat="31.79449" lon="34.96109">
<ele>205</ele>
<time>2021-06-16T00:53:42Z</time></trkpt>
<trkpt lat="31.79456" lon="34.96098">
<ele>205</ele>
<time>2021-06-16T00:53:44Z</time></trkpt>
<trkpt lat="31.79469" lon="34.96072">
<ele>205</ele>
<time>2021-06-16T00:53:49Z</time></trkpt>
<trkpt lat="31.79476" lon="34.96065">
<ele>206</ele>
<time>2021-06-16T00:53:51Z</time></trkpt>
<trkpt lat="31.79483" lon="34.96063">
<ele>205</ele>
<time>2021-06-16T00:53:53Z</time></trkpt>
<trkpt lat="31.79498" lon="34.96068">
<ele>203</ele>
<time>2021-06-16T00:53:56Z</time></trkpt>
<trkpt lat="31.79511" lon="34.96075">
<ele>202</ele>
<time>2021-06-16T00:53:59Z</time></trkpt>
<trkpt lat="31.79546" lon="34.961">
<ele>200</ele>
<time>2021-06-16T00:54:07Z</time></trkpt>
<trkpt lat="31.79558" lon="34.96106">
<ele>200</ele>
<time>2021-06-16T00:54:09Z</time></trkpt>
<trkpt lat="31.79568" lon="34.96106">
<ele>200</ele>
<time>2021-06-16T00:54:11Z</time></trkpt>
<trkpt lat="31.79602" lon="34.96091">
<ele>199</ele>
<time>2021-06-16T00:54:19Z</time></trkpt>
<trkpt lat="31.7961" lon="34.96104">
<ele>201</ele>
<time>2021-06-16T00:54:21Z</time></trkpt>
<trkpt lat="31.7961" lon="34.96113">
<ele>201</ele>
<time>2021-06-16T00:54:23Z</time></trkpt>
<trkpt lat="31.79608" lon="34.96121">
<ele>202</ele>
<time>2021-06-16T00:54:24Z</time></trkpt>
<trkpt lat="31.79604" lon="34.96128">
<ele>202</ele>
<time>2021-06-16T00:54:26Z</time></trkpt>
<trkpt lat="31.79587" lon="34.96143">
<ele>202</ele>
<time>2021-06-16T00:54:30Z</time></trkpt>
<trkpt lat="31.79575" lon="34.96157">
<ele>202</ele>
<time>2021-06-16T00:54:33Z</time></trkpt>
<trkpt lat="31.79557" lon="34.96185">
<ele>203</ele>
<time>2021-06-16T00:54:39Z</time></trkpt>
<trkpt lat="31.79555" lon="34.96193">
<ele>203</ele>
<time>2021-06-16T00:54:41Z</time></trkpt>
<trkpt lat="31.79557" lon="34.9621">
<ele>205</ele>
<time>2021-06-16T00:54:44Z</time></trkpt>
<trkpt lat="31.7957" lon="34.96254">
<ele>209</ele>
<time>2021-06-16T00:54:52Z</time></trkpt>
<trkpt lat="31.79577" lon="34.96308">
<ele>212</ele>
<time>2021-06-16T00:55:01Z</time></trkpt>
<trkpt lat="31.7958" lon="34.96407">
<ele>216</ele>
<time>2021-06-16T00:55:18Z</time></trkpt>
<trkpt lat="31.79568" lon="34.96452">
<ele>216</ele>
<time>2021-06-16T00:55:26Z</time></trkpt>
<trkpt lat="31.79563" lon="34.96462">
<ele>216</ele>
<time>2021-06-16T00:55:28Z</time></trkpt>
<trkpt lat="31.79552" lon="34.96471">
<ele>217</ele>
<time>2021-06-16T00:55:31Z</time></trkpt>
<trkpt lat="31.79526" lon="34.96485">
<ele>219</ele>
<time>2021-06-16T00:55:36Z</time></trkpt>
<trkpt lat="31.79508" lon="34.96525">
<ele>222</ele>
<time>2021-06-16T00:55:44Z</time></trkpt>
<trkpt lat="31.79494" lon="34.96544">
<ele>224</ele>
<time>2021-06-16T00:55:48Z</time></trkpt>
<trkpt lat="31.79448" lon="34.96645">
<ele>233</ele>
<time>2021-06-16T00:56:08Z</time></trkpt>
<trkpt lat="31.7943" lon="34.96676">
<ele>239</ele>
<time>2021-06-16T00:56:14Z</time></trkpt>
<trkpt lat="31.79426" lon="34.96695">
<ele>240</ele>
<time>2021-06-16T00:56:18Z</time></trkpt>
<trkpt lat="31.79425" lon="34.96708">
<ele>240</ele>
<time>2021-06-16T00:56:20Z</time></trkpt>
<trkpt lat="31.79427" lon="34.9675">
<ele>240</ele>
<time>2021-06-16T00:56:27Z</time></trkpt>
<trkpt lat="31.79424" lon="34.96785">
<ele>240</ele>
<time>2021-06-16T00:56:33Z</time></trkpt>
<trkpt lat="31.79424" lon="34.96831">
<ele>239</ele>
<time>2021-06-16T00:56:41Z</time></trkpt>
<trkpt lat="31.79414" lon="34.96921">
<ele>238</ele>
<time>2021-06-16T00:56:56Z</time></trkpt>
<trkpt lat="31.79416" lon="34.96935">
<ele>238</ele>
<time>2021-06-16T00:56:59Z</time></trkpt>
<trkpt lat="31.79422" lon="34.96947">
<ele>238</ele>
<time>2021-06-16T00:57:01Z</time></trkpt>
<trkpt lat="31.7943" lon="34.96959">
<ele>237</ele>
<time>2021-06-16T00:57:04Z</time></trkpt>
<trkpt lat="31.7944" lon="34.96966">
<ele>236</ele>
<time>2021-06-16T00:57:06Z</time></trkpt>
<trkpt lat="31.79454" lon="34.9697">
<ele>233</ele>
<time>2021-06-16T00:57:09Z</time></trkpt>
<trkpt lat="31.79479" lon="34.96972">
<ele>229</ele>
<time>2021-06-16T00:57:14Z</time></trkpt>
<trkpt lat="31.79505" lon="34.96985">
<ele>224</ele>
<time>2021-06-16T00:57:20Z</time></trkpt>
<trkpt lat="31.79518" lon="34.96997">
<ele>222</ele>
<time>2021-06-16T00:57:23Z</time></trkpt>
<trkpt lat="31.79531" lon="34.97013">
<ele>221</ele>
<time>2021-06-16T00:57:27Z</time></trkpt>
<trkpt lat="31.79543" lon="34.97038">
<ele>221</ele>
<time>2021-06-16T00:57:31Z</time></trkpt>
<trkpt lat="31.79579" lon="34.97082">
<ele>218</ele>
<time>2021-06-16T00:57:42Z</time></trkpt>
<trkpt lat="31.79596" lon="34.97106">
<ele>216</ele>
<time>2021-06-16T00:57:47Z</time></trkpt>
<trkpt lat="31.79601" lon="34.97122">
<ele>216</ele>
<time>2021-06-16T00:57:50Z</time></trkpt>
<trkpt lat="31.79604" lon="34.97153">
<ele>217</ele>
<time>2021-06-16T00:57:55Z</time></trkpt>
<trkpt lat="31.79594" lon="34.97185">
<ele>218</ele>
<time>2021-06-16T00:58:01Z</time></trkpt>
<trkpt lat="31.79584" lon="34.97206">
<ele>217</ele>
<time>2021-06-16T00:58:05Z</time></trkpt>
<trkpt lat="31.7957" lon="34.97228">
<ele>219</ele>
<time>2021-06-16T00:58:10Z</time></trkpt>
<trkpt lat="31.79567" lon="34.97237">
<ele>218</ele>
<time>2021-06-16T00:58:12Z</time></trkpt>
<trkpt lat="31.79559" lon="34.97271">
<ele>218</ele>
<time>2021-06-16T00:58:18Z</time></trkpt>
<trkpt lat="31.79557" lon="34.97315">
<ele>215</ele>
<time>2021-06-16T00:58:25Z</time></trkpt>
<trkpt lat="31.79551" lon="34.97396">
<ele>215</ele>
<time>2021-06-16T00:58:39Z</time></trkpt>
<trkpt lat="31.79551" lon="34.97469">
<ele>216</ele>
<time>2021-06-16T00:58:51Z</time></trkpt>
<trkpt lat="31.79536" lon="34.97486">
<ele>219</ele>
<time>2021-06-16T00:58:56Z</time></trkpt>
<trkpt lat="31.7953" lon="34.97519">
<ele>219</ele>
<time>2021-06-16T00:59:01Z</time></trkpt>
<trkpt lat="31.79536" lon="34.97545">
<ele>219</ele>
<time>2021-06-16T00:59:06Z</time></trkpt>
<trkpt lat="31.79531" lon="34.97547">
<ele>219</ele>
<time>2021-06-16T00:59:07Z</time></trkpt>
<trkpt lat="31.79504" lon="34.97594">
<ele>220</ele>
<time>2021-06-16T00:59:17Z</time></trkpt>
<trkpt lat="31.79482" lon="34.97625">
<ele>222</ele>
<time>2021-06-16T00:59:24Z</time></trkpt>
<trkpt lat="31.79519" lon="34.97653">
<ele>218</ele>
<time>2021-06-16T00:59:32Z</time></trkpt>
<trkpt lat="31.7953" lon="34.97666">
<ele>218</ele>
<time>2021-06-16T00:59:35Z</time></trkpt>
<trkpt lat="31.79532" lon="34.97707">
<ele>220</ele>
<time>2021-06-16T00:59:42Z</time></trkpt>
<trkpt lat="31.79563" lon="34.97728">
<ele>222</ele>
<time>2021-06-16T00:59:50Z</time></trkpt>
<trkpt lat="31.79579" lon="34.97733">
<ele>223</ele>
<time>2021-06-16T00:59:53Z</time></trkpt>
<trkpt lat="31.79593" lon="34.97735">
<ele>224</ele>
<time>2021-06-16T00:59:56Z</time></trkpt>
<trkpt lat="31.79608" lon="34.97731">
<ele>225</ele>
<time>2021-06-16T00:59:59Z</time></trkpt>
<trkpt lat="31.79619" lon="34.97725">
<ele>226</ele>
<time>2021-06-16T01:00:01Z</time></trkpt>
<trkpt lat="31.79632" lon="34.97714">
<ele>227</ele>
<time>2021-06-16T01:00:05Z</time></trkpt>
<trkpt lat="31.79709" lon="34.97638">
<ele>231</ele>
<time>2021-06-16T01:00:25Z</time></trkpt>
<trkpt lat="31.79748" lon="34.97601">
<ele>232</ele>
<time>2021-06-16T01:00:35Z</time></trkpt>
<trkpt lat="31.79801" lon="34.9758">
<ele>232</ele>
<time>2021-06-16T01:00:46Z</time></trkpt>
<trkpt lat="31.79818" lon="34.97579">
<ele>232</ele>
<time>2021-06-16T01:00:49Z</time></trkpt>
<trkpt lat="31.79832" lon="34.97581">
<ele>233</ele>
<time>2021-06-16T01:00:52Z</time></trkpt>
<trkpt lat="31.79843" lon="34.97585">
<ele>233</ele>
<time>2021-06-16T01:00:54Z</time></trkpt>
<trkpt lat="31.79861" lon="34.97595">
<ele>232</ele>
<time>2021-06-16T01:00:58Z</time></trkpt>
<trkpt lat="31.79883" lon="34.97615">
<ele>232</ele>
<time>2021-06-16T01:01:04Z</time></trkpt>
<trkpt lat="31.79901" lon="34.97638">
<ele>233</ele>
<time>2021-06-16T01:01:09Z</time></trkpt>
<trkpt lat="31.79923" lon="34.97672">
<ele>234</ele>
<time>2021-06-16T01:01:17Z</time></trkpt>
<trkpt lat="31.79968" lon="34.97732">
<ele>235</ele>
<time>2021-06-16T01:01:30Z</time></trkpt>
<trkpt lat="31.79982" lon="34.97746">
<ele>235</ele>
<time>2021-06-16T01:01:34Z</time></trkpt>
<trkpt lat="31.79993" lon="34.97753">
<ele>235</ele>
<time>2021-06-16T01:01:36Z</time></trkpt>
<trkpt lat="31.80008" lon="34.97759">
<ele>235</ele>
<time>2021-06-16T01:01:40Z</time></trkpt>
<trkpt lat="31.80027" lon="34.97756">
<ele>234</ele>
<time>2021-06-16T01:01:43Z</time></trkpt>
<trkpt lat="31.80043" lon="34.97746">
<ele>234</ele>
<time>2021-06-16T01:01:47Z</time></trkpt>
<trkpt lat="31.80058" lon="34.97818">
<ele>237</ele>
<time>2021-06-16T01:02:00Z</time></trkpt>
<trkpt lat="31.80054" lon="34.97837">
<ele>239</ele>
<time>2021-06-16T01:02:03Z</time></trkpt>
<trkpt lat="31.80013" lon="34.97896">
<ele>243</ele>
<time>2021-06-16T01:02:16Z</time></trkpt>
<trkpt lat="31.80001" lon="34.97917">
<ele>244</ele>
<time>2021-06-16T01:02:20Z</time></trkpt>
<trkpt lat="31.79998" lon="34.97934">
<ele>245</ele>
<time>2021-06-16T01:02:23Z</time></trkpt>
<trkpt lat="31.79993" lon="34.97949">
<ele>246</ele>
<time>2021-06-16T01:02:26Z</time></trkpt>
<trkpt lat="31.79988" lon="34.97978">
<ele>248</ele>
<time>2021-06-16T01:02:31Z</time></trkpt>
<trkpt lat="31.79998" lon="34.98014">
<ele>247</ele>
<time>2021-06-16T01:02:38Z</time></trkpt>
<trkpt lat="31.80016" lon="34.98053">
<ele>248</ele>
<time>2021-06-16T01:02:45Z</time></trkpt>
<trkpt lat="31.80016" lon="34.98052">
<ele>248</ele>
<time>2021-06-16T01:02:45Z</time></trkpt>
<trkpt lat="31.80025" lon="34.98069">
<ele>249</ele>
<time>2021-06-16T01:02:49Z</time></trkpt>
<trkpt lat="31.80027" lon="34.98082">
<ele>249</ele>
<time>2021-06-16T01:02:51Z</time></trkpt>
<trkpt lat="31.80036" lon="34.98105">
<ele>251</ele>
<time>2021-06-16T01:02:55Z</time></trkpt>
<trkpt lat="31.80068" lon="34.98161">
<ele>252</ele>
<time>2021-06-16T01:03:07Z</time></trkpt>
<trkpt lat="31.8007" lon="34.9817">
<ele>253</ele>
<time>2021-06-16T01:03:08Z</time></trkpt>
<trkpt lat="31.80072" lon="34.98199">
<ele>254</ele>
<time>2021-06-16T01:03:13Z</time></trkpt>
<trkpt lat="31.8007" lon="34.9822">
<ele>255</ele>
<time>2021-06-16T01:03:17Z</time></trkpt>
<trkpt lat="31.80066" lon="34.98296">
<ele>259</ele>
<time>2021-06-16T01:03:30Z</time></trkpt>
<trkpt lat="31.80067" lon="34.98352">
<ele>262</ele>
<time>2021-06-16T01:03:39Z</time></trkpt>
<trkpt lat="31.80064" lon="34.98372">
<ele>263</ele>
<time>2021-06-16T01:03:43Z</time></trkpt>
<trkpt lat="31.80053" lon="34.98418">
<ele>268</ele>
<time>2021-06-16T01:03:51Z</time></trkpt>
<trkpt lat="31.80045" lon="34.98446">
<ele>269</ele>
<time>2021-06-16T01:03:56Z</time></trkpt>
<trkpt lat="31.80014" lon="34.98532">
<ele>271</ele>
<time>2021-06-16T01:04:12Z</time></trkpt>
<trkpt lat="31.80004" lon="34.98553">
<ele>272</ele>
<time>2021-06-16T01:04:16Z</time></trkpt>
<trkpt lat="31.7993" lon="34.98664">
<ele>285</ele>
<time>2021-06-16T01:04:40Z</time></trkpt>
<trkpt lat="31.79872" lon="34.98795">
<ele>290</ele>
<time>2021-06-16T01:05:05Z</time></trkpt>
<trkpt lat="31.79863" lon="34.98809">
<ele>290</ele>
<time>2021-06-16T01:05:08Z</time></trkpt>
<trkpt lat="31.79844" lon="34.98829">
<ele>289</ele>
<time>2021-06-16T01:05:13Z</time></trkpt>
<trkpt lat="31.79839" lon="34.9884">
<ele>288</ele>
<time>2021-06-16T01:05:15Z</time></trkpt>
<trkpt lat="31.79835" lon="34.98852">
<ele>289</ele>
<time>2021-06-16T01:05:18Z</time></trkpt>
<trkpt lat="31.7985" lon="34.98892">
<ele>291</ele>
<time>2021-06-16T01:05:25Z</time></trkpt>
<trkpt lat="31.79857" lon="34.98902">
<ele>292</ele>
<time>2021-06-16T01:05:27Z</time></trkpt>
<trkpt lat="31.79865" lon="34.9891">
<ele>292</ele>
<time>2021-06-16T01:05:29Z</time></trkpt>
<trkpt lat="31.79879" lon="34.98912">
<ele>293</ele>
<time>2021-06-16T01:05:32Z</time></trkpt>
<trkpt lat="31.79886" lon="34.98909">
<ele>293</ele>
<time>2021-06-16T01:05:34Z</time></trkpt>
<trkpt lat="31.79891" lon="34.98903">
<ele>293</ele>
<time>2021-06-16T01:05:35Z</time></trkpt>
<trkpt lat="31.79904" lon="34.98878">
<ele>292</ele>
<time>2021-06-16T01:05:40Z</time></trkpt>
<trkpt lat="31.79922" lon="34.98846">
<ele>292</ele>
<time>2021-06-16T01:05:47Z</time></trkpt>
<trkpt lat="31.79945" lon="34.98818">
<ele>294</ele>
<time>2021-06-16T01:05:53Z</time></trkpt>
<trkpt lat="31.79966" lon="34.98803">
<ele>296</ele>
<time>2021-06-16T01:05:58Z</time></trkpt>
<trkpt lat="31.8001" lon="34.98775">
<ele>298</ele>
<time>2021-06-16T01:06:08Z</time></trkpt>
<trkpt lat="31.80027" lon="34.98767">
<ele>298</ele>
<time>2021-06-16T01:06:12Z</time></trkpt>
<trkpt lat="31.80052" lon="34.98762">
<ele>300</ele>
<time>2021-06-16T01:06:17Z</time></trkpt>
<trkpt lat="31.80066" lon="34.98762">
<ele>302</ele>
<time>2021-06-16T01:06:20Z</time></trkpt>
<trkpt lat="31.80087" lon="34.98769">
<ele>305</ele>
<time>2021-06-16T01:06:24Z</time></trkpt>
<trkpt lat="31.80106" lon="34.98781">
<ele>309</ele>
<time>2021-06-16T01:06:28Z</time></trkpt>
<trkpt lat="31.80121" lon="34.98792">
<ele>312</ele>
<time>2021-06-16T01:06:32Z</time></trkpt>
<trkpt lat="31.80147" lon="34.98816">
<ele>319</ele>
<time>2021-06-16T01:06:39Z</time></trkpt>
<trkpt lat="31.80165" lon="34.98829">
<ele>323</ele>
<time>2021-06-16T01:06:43Z</time></trkpt>
<trkpt lat="31.80179" lon="34.98832">
<ele>326</ele>
<time>2021-06-16T01:06:46Z</time></trkpt>
<trkpt lat="31.80186" lon="34.9883">
<ele>327</ele>
<time>2021-06-16T01:06:47Z</time></trkpt>
<trkpt lat="31.80192" lon="34.98826">
<ele>327</ele>
<time>2021-06-16T01:06:48Z</time></trkpt>
<trkpt lat="31.802" lon="34.98818">
<ele>327</ele>
<time>2021-06-16T01:06:51Z</time></trkpt>
<trkpt lat="31.80215" lon="34.98789">
<ele>322</ele>
<time>2021-06-16T01:06:56Z</time></trkpt>
<trkpt lat="31.80228" lon="34.98774">
<ele>321</ele>
<time>2021-06-16T01:07:00Z</time></trkpt>
<trkpt lat="31.80249" lon="34.98767">
<ele>324</ele>
<time>2021-06-16T01:07:04Z</time></trkpt>
<trkpt lat="31.80274" lon="34.98766">
<ele>328</ele>
<time>2021-06-16T01:07:09Z</time></trkpt>
<trkpt lat="31.80304" lon="34.98759">
<ele>331</ele>
<time>2021-06-16T01:07:16Z</time></trkpt>
<trkpt lat="31.80316" lon="34.98754">
<ele>332</ele>
<time>2021-06-16T01:07:18Z</time></trkpt>
<trkpt lat="31.80336" lon="34.98738">
<ele>333</ele>
<time>2021-06-16T01:07:23Z</time></trkpt>
<trkpt lat="31.80345" lon="34.98724">
<ele>332</ele>
<time>2021-06-16T01:07:26Z</time></trkpt>
<trkpt lat="31.80354" lon="34.98716">
<ele>333</ele>
<time>2021-06-16T01:07:28Z</time></trkpt>
<trkpt lat="31.80386" lon="34.98676">
<ele>334</ele>
<time>2021-06-16T01:07:38Z</time></trkpt>
<trkpt lat="31.80394" lon="34.98662">
<ele>334</ele>
<time>2021-06-16T01:07:40Z</time></trkpt>
<trkpt lat="31.80403" lon="34.98639">
<ele>336</ele>
<time>2021-06-16T01:07:45Z</time></trkpt>
<trkpt lat="31.8041" lon="34.98625">
<ele>337</ele>
<time>2021-06-16T01:07:47Z</time></trkpt>
<trkpt lat="31.80416" lon="34.98619">
<ele>338</ele>
<time>2021-06-16T01:07:49Z</time></trkpt>
<trkpt lat="31.80426" lon="34.98615">
<ele>338</ele>
<time>2021-06-16T01:07:51Z</time></trkpt>
<trkpt lat="31.80433" lon="34.98614">
<ele>337</ele>
<time>2021-06-16T01:07:53Z</time></trkpt>
<trkpt lat="31.8044" lon="34.98617">
<ele>337</ele>
<time>2021-06-16T01:07:54Z</time></trkpt>
<trkpt lat="31.80446" lon="34.98621">
<ele>337</ele>
<time>2021-06-16T01:07:55Z</time></trkpt>
<trkpt lat="31.80451" lon="34.98628">
<ele>337</ele>
<time>2021-06-16T01:07:57Z</time></trkpt>
<trkpt lat="31.80456" lon="34.98648">
<ele>338</ele>
<time>2021-06-16T01:08:01Z</time></trkpt>
<trkpt lat="31.80457" lon="34.98661">
<ele>338</ele>
<time>2021-06-16T01:08:03Z</time></trkpt>
<trkpt lat="31.80457" lon="34.98708">
<ele>341</ele>
<time>2021-06-16T01:08:11Z</time></trkpt>
<trkpt lat="31.80465" lon="34.98792">
<ele>345</ele>
<time>2021-06-16T01:08:25Z</time></trkpt>
<trkpt lat="31.80465" lon="34.98809">
<ele>345</ele>
<time>2021-06-16T01:08:28Z</time></trkpt>
<trkpt lat="31.80463" lon="34.98826">
<ele>346</ele>
<time>2021-06-16T01:08:31Z</time></trkpt>
<trkpt lat="31.80457" lon="34.98841">
<ele>347</ele>
<time>2021-06-16T01:08:34Z</time></trkpt>
<trkpt lat="31.80429" lon="34.9889">
<ele>350</ele>
<time>2021-06-16T01:08:44Z</time></trkpt>
<trkpt lat="31.80402" lon="34.98946">
<ele>351</ele>
<time>2021-06-16T01:08:55Z</time></trkpt>
<trkpt lat="31.80379" lon="34.99008">
<ele>350</ele>
<time>2021-06-16T01:09:06Z</time></trkpt>
<trkpt lat="31.80364" lon="34.99056">
<ele>351</ele>
<time>2021-06-16T01:09:15Z</time></trkpt>
<trkpt lat="31.80358" lon="34.99093">
<ele>351</ele>
<time>2021-06-16T01:09:22Z</time></trkpt>
<trkpt lat="31.80359" lon="34.99119">
<ele>352</ele>
<time>2021-06-16T01:09:26Z</time></trkpt>
<trkpt lat="31.80365" lon="34.99134">
<ele>353</ele>
<time>2021-06-16T01:09:29Z</time></trkpt>
<trkpt lat="31.80377" lon="34.99147">
<ele>353</ele>
<time>2021-06-16T01:09:32Z</time></trkpt>
<trkpt lat="31.8039" lon="34.99152">
<ele>353</ele>
<time>2021-06-16T01:09:35Z</time></trkpt>
<trkpt lat="31.80417" lon="34.99155">
<ele>352</ele>
<time>2021-06-16T01:09:40Z</time></trkpt>
<trkpt lat="31.80436" lon="34.99148">
<ele>352</ele>
<time>2021-06-16T01:09:44Z</time></trkpt>
<trkpt lat="31.80555" lon="34.99067">
<ele>344</ele>
<time>2021-06-16T01:10:12Z</time></trkpt>
<trkpt lat="31.80608" lon="34.9905">
<ele>343</ele>
<time>2021-06-16T01:10:23Z</time></trkpt>
<trkpt lat="31.80633" lon="34.99047">
<ele>343</ele>
<time>2021-06-16T01:10:28Z</time></trkpt>
<trkpt lat="31.80678" lon="34.99045">
<ele>342</ele>
<time>2021-06-16T01:10:37Z</time></trkpt>
<trkpt lat="31.80693" lon="34.99052">
<ele>342</ele>
<time>2021-06-16T01:10:40Z</time></trkpt>
<trkpt lat="31.80718" lon="34.99072">
<ele>342</ele>
<time>2021-06-16T01:10:46Z</time></trkpt>
<trkpt lat="31.80733" lon="34.99092">
<ele>341</ele>
<time>2021-06-16T01:10:51Z</time></trkpt>
<trkpt lat="31.80755" lon="34.99129">
<ele>340</ele>
<time>2021-06-16T01:10:58Z</time></trkpt>
<trkpt lat="31.80769" lon="34.99145">
<ele>340</ele>
<time>2021-06-16T01:11:02Z</time></trkpt>
<trkpt lat="31.80788" lon="34.99152">
<ele>340</ele>
<time>2021-06-16T01:11:06Z</time></trkpt>
<trkpt lat="31.80808" lon="34.99142">
<ele>338</ele>
<time>2021-06-16T01:11:11Z</time></trkpt>
<trkpt lat="31.80947" lon="34.99024">
<ele>333</ele>
<time>2021-06-16T01:11:45Z</time></trkpt>
<trkpt lat="31.81023" lon="34.98966">
<ele>331</ele>
<time>2021-06-16T01:12:03Z</time></trkpt>
<trkpt lat="31.81041" lon="34.98957">
<ele>331</ele>
<time>2021-06-16T01:12:07Z</time></trkpt>
<trkpt lat="31.8106" lon="34.98954">
<ele>331</ele>
<time>2021-06-16T01:12:11Z</time></trkpt>
<trkpt lat="31.81078" lon="34.98954">
<ele>332</ele>
<time>2021-06-16T01:12:14Z</time></trkpt>
<trkpt lat="31.81112" lon="34.98959">
<ele>331</ele>
<time>2021-06-16T01:12:21Z</time></trkpt>
<trkpt lat="31.81159" lon="34.98931">
<ele>330</ele>
<time>2021-06-16T01:12:32Z</time></trkpt>
<trkpt lat="31.81174" lon="34.98925">
<ele>331</ele>
<time>2021-06-16T01:12:35Z</time></trkpt>
<trkpt lat="31.81217" lon="34.98913">
<ele>332</ele>
<time>2021-06-16T01:12:44Z</time></trkpt>
<trkpt lat="31.81342" lon="34.98934">
<ele>328</ele>
<time>2021-06-16T01:13:09Z</time></trkpt>
<trkpt lat="31.81421" lon="34.98964">
<ele>326</ele>
<time>2021-06-16T01:13:26Z</time></trkpt>
<trkpt lat="31.81429" lon="34.98969">
<ele>326</ele>
<time>2021-06-16T01:13:28Z</time></trkpt>
<trkpt lat="31.81429" lon="34.98968">
<ele>326</ele>
<time>2021-06-16T01:13:28Z</time></trkpt>
<trkpt lat="31.8152" lon="34.99021">
<ele>322</ele>
<time>2021-06-16T01:13:48Z</time></trkpt>
<trkpt lat="31.81575" lon="34.99037">
<ele>321</ele>
<time>2021-06-16T01:14:00Z</time></trkpt>
<trkpt lat="31.81598" lon="34.9903">
<ele>321</ele>
<time>2021-06-16T01:14:04Z</time></trkpt>
<trkpt lat="31.81667" lon="34.99018">
<ele>315</ele>
<time>2021-06-16T01:14:18Z</time></trkpt>
<trkpt lat="31.81736" lon="34.99001">
<ele>310</ele>
<time>2021-06-16T01:14:32Z</time></trkpt>
<trkpt lat="31.81749" lon="34.98961">
<ele>309</ele>
<time>2021-06-16T01:14:40Z</time></trkpt>
<trkpt lat="31.81746" lon="34.98933">
<ele>309</ele>
<time>2021-06-16T01:14:44Z</time></trkpt>
<trkpt lat="31.81734" lon="34.98892">
<ele>310</ele>
<time>2021-06-16T01:14:52Z</time></trkpt>
<trkpt lat="31.81628" lon="34.98827">
<ele>316</ele>
<time>2021-06-16T01:15:16Z</time></trkpt>
<trkpt lat="31.81628" lon="34.98826">
<ele>316</ele>
<time>2021-06-16T01:15:16Z</time></trkpt>
<trkpt lat="31.81622" lon="34.98823">
<ele>317</ele>
<time>2021-06-16T01:15:17Z</time></trkpt>
<trkpt lat="31.81608" lon="34.98806">
<ele>318</ele>
<time>2021-06-16T01:15:21Z</time></trkpt>
<trkpt lat="31.81602" lon="34.98784">
<ele>318</ele>
<time>2021-06-16T01:15:25Z</time></trkpt>
<trkpt lat="31.81601" lon="34.98754">
<ele>317</ele>
<time>2021-06-16T01:15:30Z</time></trkpt>
<trkpt lat="31.81617" lon="34.98528">
<ele>315</ele>
<time>2021-06-16T01:16:09Z</time></trkpt>
<trkpt lat="31.81617" lon="34.98495">
<ele>315</ele>
<time>2021-06-16T01:16:15Z</time></trkpt>
<trkpt lat="31.81612" lon="34.98417">
<ele>314</ele>
<time>2021-06-16T01:16:28Z</time></trkpt>
<trkpt lat="31.81597" lon="34.9834">
<ele>313</ele>
<time>2021-06-16T01:16:41Z</time></trkpt>
<trkpt lat="31.81597" lon="34.98257">
<ele>309</ele>
<time>2021-06-16T01:16:55Z</time></trkpt>
<trkpt lat="31.81605" lon="34.98185">
<ele>304</ele>
<time>2021-06-16T01:17:08Z</time></trkpt>
<trkpt lat="31.81615" lon="34.98162">
<ele>302</ele>
<time>2021-06-16T01:17:12Z</time></trkpt>
<trkpt lat="31.81617" lon="34.98154">
<ele>302</ele>
<time>2021-06-16T01:17:14Z</time></trkpt>
<trkpt lat="31.81647" lon="34.98163">
<ele>302</ele>
<time>2021-06-16T01:17:20Z</time></trkpt>
<trkpt lat="31.81677" lon="34.98181">
<ele>302</ele>
<time>2021-06-16T01:17:27Z</time></trkpt>
<trkpt lat="31.8169" lon="34.98186">
<ele>300</ele>
<time>2021-06-16T01:17:29Z</time></trkpt>
<trkpt lat="31.81697" lon="34.98184">
<ele>299</ele>
<time>2021-06-16T01:17:31Z</time></trkpt>
<trkpt lat="31.81696" lon="34.9821">
<ele>302</ele>
<time>2021-06-16T01:17:35Z</time></trkpt>
<trkpt lat="31.81705" lon="34.98238">
<ele>303</ele>
<time>2021-06-16T01:17:40Z</time></trkpt>
<trkpt lat="31.81714" lon="34.98256">
<ele>303</ele>
<time>2021-06-16T01:17:44Z</time></trkpt>
<trkpt lat="31.81729" lon="34.9828">
<ele>303</ele>
<time>2021-06-16T01:17:49Z</time></trkpt>
<trkpt lat="31.8175" lon="34.98303">
<ele>303</ele>
<time>2021-06-16T01:17:55Z</time></trkpt>
<trkpt lat="31.81793" lon="34.98333">
<ele>300</ele>
<time>2021-06-16T01:18:05Z</time></trkpt>
<trkpt lat="31.818" lon="34.98343">
<ele>299</ele>
<time>2021-06-16T01:18:07Z</time></trkpt>
<trkpt lat="31.8181" lon="34.98361">
<ele>299</ele>
<time>2021-06-16T01:18:11Z</time></trkpt>
<trkpt lat="31.81834" lon="34.98384">
<ele>297</ele>
<time>2021-06-16T01:18:17Z</time></trkpt>
<trkpt lat="31.81834" lon="34.98383">
<ele>297</ele>
<time>2021-06-16T01:18:17Z</time></trkpt>
<trkpt lat="31.81854" lon="34.98415">
<ele>297</ele>
<time>2021-06-16T01:18:24Z</time></trkpt>
<trkpt lat="31.8185" lon="34.98457">
<ele>296</ele>
<time>2021-06-16T01:18:31Z</time></trkpt>
<trkpt lat="31.8185" lon="34.98465">
<ele>295</ele>
<time>2021-06-16T01:18:32Z</time></trkpt>
<trkpt lat="31.81855" lon="34.98472">
<ele>295</ele>
<time>2021-06-16T01:18:34Z</time></trkpt>
<trkpt lat="31.81867" lon="34.98481">
<ele>294</ele>
<time>2021-06-16T01:18:37Z</time></trkpt>
<trkpt lat="31.81872" lon="34.98487">
<ele>293</ele>
<time>2021-06-16T01:18:38Z</time></trkpt>
<trkpt lat="31.81887" lon="34.98539">
<ele>289</ele>
<time>2021-06-16T01:18:47Z</time></trkpt>
<trkpt lat="31.81905" lon="34.98591">
<ele>283</ele>
<time>2021-06-16T01:18:57Z</time></trkpt>
<trkpt lat="31.81909" lon="34.98611">
<ele>281</ele>
<time>2021-06-16T01:19:01Z</time></trkpt>
<trkpt lat="31.81905" lon="34.98628">
<ele>280</ele>
<time>2021-06-16T01:19:04Z</time></trkpt>
<trkpt lat="31.81899" lon="34.98647">
<ele>278</ele>
<time>2021-06-16T01:19:07Z</time></trkpt>
<trkpt lat="31.81898" lon="34.98656">
<ele>277</ele>
<time>2021-06-16T01:19:09Z</time></trkpt>
<trkpt lat="31.81903" lon="34.98676">
<ele>275</ele>
<time>2021-06-16T01:19:12Z</time></trkpt>
<trkpt lat="31.81922" lon="34.98707">
<ele>273</ele>
<time>2021-06-16T01:19:19Z</time></trkpt>
<trkpt lat="31.81934" lon="34.98736">
<ele>272</ele>
<time>2021-06-16T01:19:24Z</time></trkpt>
<trkpt lat="31.8195" lon="34.98756">
<ele>272</ele>
<time>2021-06-16T01:19:29Z</time></trkpt>
<trkpt lat="31.81962" lon="34.98781">
<ele>270</ele>
<time>2021-06-16T01:19:34Z</time></trkpt>
<trkpt lat="31.81981" lon="34.98808">
<ele>267</ele>
<time>2021-06-16T01:19:40Z</time></trkpt>
<trkpt lat="31.82005" lon="34.98837">
<ele>262</ele>
<time>2021-06-16T01:19:47Z</time></trkpt>
<trkpt lat="31.82035" lon="34.98852">
<ele>261</ele>
<time>2021-06-16T01:19:53Z</time></trkpt>
<trkpt lat="31.8206" lon="34.98877">
<ele>258</ele>
<time>2021-06-16T01:20:00Z</time></trkpt>
<trkpt lat="31.8209" lon="34.9893">
<ele>250</ele>
<time>2021-06-16T01:20:10Z</time></trkpt>
<trkpt lat="31.82104" lon="34.98943">
<ele>249</ele>
<time>2021-06-16T01:20:14Z</time></trkpt>
<trkpt lat="31.82103" lon="34.98943">
<ele>249</ele>
<time>2021-06-16T01:20:14Z</time></trkpt>
<trkpt lat="31.82146" lon="34.98982">
<ele>242</ele>
<time>2021-06-16T01:20:25Z</time></trkpt>
<trkpt lat="31.82167" lon="34.9903">
<ele>239</ele>
<time>2021-06-16T01:20:34Z</time></trkpt>
<trkpt lat="31.82209" lon="34.9906">
<ele>237</ele>
<time>2021-06-16T01:20:44Z</time></trkpt>
<trkpt lat="31.82244" lon="34.991">
<ele>233</ele>
<time>2021-06-16T01:20:54Z</time></trkpt>
<trkpt lat="31.82257" lon="34.99141">
<ele>232</ele>
<time>2021-06-16T01:21:01Z</time></trkpt>
<trkpt lat="31.82251" lon="34.9916">
<ele>234</ele>
<time>2021-06-16T01:21:05Z</time></trkpt>
<trkpt lat="31.82246" lon="34.99185">
<ele>234</ele>
<time>2021-06-16T01:21:09Z</time></trkpt>
<trkpt lat="31.82241" lon="34.99227">
<ele>234</ele>
<time>2021-06-16T01:21:16Z</time></trkpt>
<trkpt lat="31.82238" lon="34.99261">
<ele>234</ele>
<time>2021-06-16T01:21:22Z</time></trkpt>
<trkpt lat="31.8224" lon="34.99286">
<ele>232</ele>
<time>2021-06-16T01:21:27Z</time></trkpt>
<trkpt lat="31.82252" lon="34.99327">
<ele>227</ele>
<time>2021-06-16T01:21:34Z</time></trkpt>
<trkpt lat="31.82253" lon="34.99339">
<ele>227</ele>
<time>2021-06-16T01:21:36Z</time></trkpt>
<trkpt lat="31.82251" lon="34.99348">
<ele>226</ele>
<time>2021-06-16T01:21:38Z</time></trkpt>
<trkpt lat="31.82246" lon="34.99359">
<ele>227</ele>
<time>2021-06-16T01:21:40Z</time></trkpt>
<trkpt lat="31.82239" lon="34.99369">
<ele>228</ele>
<time>2021-06-16T01:21:42Z</time></trkpt>
<trkpt lat="31.82214" lon="34.99393">
<ele>232</ele>
<time>2021-06-16T01:21:48Z</time></trkpt>
<trkpt lat="31.82183" lon="34.99441">
<ele>232</ele>
<time>2021-06-16T01:21:59Z</time></trkpt>
<trkpt lat="31.82138" lon="34.99484">
<ele>231</ele>
<time>2021-06-16T01:22:10Z</time></trkpt>
<trkpt lat="31.82122" lon="34.99494">
<ele>231</ele>
<time>2021-06-16T01:22:14Z</time></trkpt>
<trkpt lat="31.82112" lon="34.99498">
<ele>232</ele>
<time>2021-06-16T01:22:16Z</time></trkpt>
<trkpt lat="31.82058" lon="34.99507">
<ele>236</ele>
<time>2021-06-16T01:22:27Z</time></trkpt>
<trkpt lat="31.8201" lon="34.99518">
<ele>238</ele>
<time>2021-06-16T01:22:37Z</time></trkpt>
<trkpt lat="31.81936" lon="34.99537">
<ele>241</ele>
<time>2021-06-16T01:22:52Z</time></trkpt>
<trkpt lat="31.81904" lon="34.99548">
<ele>241</ele>
<time>2021-06-16T01:22:59Z</time></trkpt>
<trkpt lat="31.8188" lon="34.99569">
<ele>239</ele>
<time>2021-06-16T01:23:05Z</time></trkpt>
<trkpt lat="31.81883" lon="34.99583">
<ele>237</ele>
<time>2021-06-16T01:23:07Z</time></trkpt>
<trkpt lat="31.81889" lon="34.996">
<ele>237</ele>
<time>2021-06-16T01:23:10Z</time></trkpt>
<trkpt lat="31.8187" lon="34.99611">
<ele>237</ele>
<time>2021-06-16T01:23:14Z</time></trkpt>
<trkpt lat="31.81831" lon="34.99611">
<ele>237</ele>
<time>2021-06-16T01:23:22Z</time></trkpt>
<trkpt lat="31.81759" lon="34.99607">
<ele>238</ele>
<time>2021-06-16T01:23:37Z</time></trkpt>
<trkpt lat="31.8174" lon="34.99615">
<ele>238</ele>
<time>2021-06-16T01:23:41Z</time></trkpt>
<trkpt lat="31.81724" lon="34.99631">
<ele>238</ele>
<time>2021-06-16T01:23:45Z</time></trkpt>
<trkpt lat="31.81706" lon="34.99643">
<ele>238</ele>
<time>2021-06-16T01:23:49Z</time></trkpt>
<trkpt lat="31.81602" lon="34.99681">
<ele>244</ele>
<time>2021-06-16T01:24:11Z</time></trkpt>
<trkpt lat="31.81598" lon="34.99695">
<ele>244</ele>
<time>2021-06-16T01:24:13Z</time></trkpt>
<trkpt lat="31.81547" lon="34.99776">
<ele>248</ele>
<time>2021-06-16T01:24:31Z</time></trkpt>
<trkpt lat="31.81527" lon="34.998">
<ele>250</ele>
<time>2021-06-16T01:24:36Z</time></trkpt>
<trkpt lat="31.81502" lon="34.99816">
<ele>251</ele>
<time>2021-06-16T01:24:42Z</time></trkpt>
<trkpt lat="31.81478" lon="34.99842">
<ele>253</ele>
<time>2021-06-16T01:24:48Z</time></trkpt>
<trkpt lat="31.81459" lon="34.99877">
<ele>253</ele>
<time>2021-06-16T01:24:56Z</time></trkpt>
<trkpt lat="31.81433" lon="34.99907">
<ele>252</ele>
<time>2021-06-16T01:25:03Z</time></trkpt>
<trkpt lat="31.81405" lon="34.99952">
<ele>252</ele>
<time>2021-06-16T01:25:12Z</time></trkpt>
<trkpt lat="31.81394" lon="34.99961">
<ele>253</ele>
<time>2021-06-16T01:25:15Z</time></trkpt>
<trkpt lat="31.81354" lon="34.9998">
<ele>257</ele>
<time>2021-06-16T01:25:24Z</time></trkpt>
<trkpt lat="31.81342" lon="34.99988">
<ele>257</ele>
<time>2021-06-16T01:25:26Z</time></trkpt>
<trkpt lat="31.81316" lon="35.0001">
<ele>257</ele>
<time>2021-06-16T01:25:33Z</time></trkpt>
<trkpt lat="31.81294" lon="35.00026">
<ele>257</ele>
<time>2021-06-16T01:25:38Z</time></trkpt>
<trkpt lat="31.81284" lon="35.0003">
<ele>257</ele>
<time>2021-06-16T01:25:40Z</time></trkpt>
<trkpt lat="31.81236" lon="35.0004">
<ele>260</ele>
<time>2021-06-16T01:25:50Z</time></trkpt>
<trkpt lat="31.81197" lon="35.0006">
<ele>262</ele>
<time>2021-06-16T01:25:58Z</time></trkpt>
<trkpt lat="31.81191" lon="35.00066">
<ele>262</ele>
<time>2021-06-16T01:26:00Z</time></trkpt>
<trkpt lat="31.81135" lon="35.00148">
<ele>264</ele>
<time>2021-06-16T01:26:18Z</time></trkpt>
<trkpt lat="31.81101" lon="35.00208">
<ele>265</ele>
<time>2021-06-16T01:26:30Z</time></trkpt>
<trkpt lat="31.81087" lon="35.00247">
<ele>261</ele>
<time>2021-06-16T01:26:37Z</time></trkpt>
<trkpt lat="31.81077" lon="35.00264">
<ele>261</ele>
<time>2021-06-16T01:26:41Z</time></trkpt>
<trkpt lat="31.81064" lon="35.0028">
<ele>262</ele>
<time>2021-06-16T01:26:45Z</time></trkpt>
<trkpt lat="31.81046" lon="35.00291">
<ele>263</ele>
<time>2021-06-16T01:26:49Z</time></trkpt>
<trkpt lat="31.81035" lon="35.00294">
<ele>263</ele>
<time>2021-06-16T01:26:51Z</time></trkpt>
<trkpt lat="31.81018" lon="35.003">
<ele>264</ele>
<time>2021-06-16T01:26:55Z</time></trkpt>
<trkpt lat="31.80997" lon="35.00303">
<ele>265</ele>
<time>2021-06-16T01:26:59Z</time></trkpt>
<trkpt lat="31.80997" lon="35.00304">
<ele>265</ele>
<time>2021-06-16T01:26:59Z</time></trkpt>
<trkpt lat="31.80994" lon="35.00305">
<ele>265</ele>
<time>2021-06-16T01:27:00Z</time></trkpt>
<trkpt lat="31.80922" lon="35.00306">
<ele>270</ele>
<time>2021-06-16T01:27:14Z</time></trkpt>
<trkpt lat="31.80895" lon="35.00319">
<ele>270</ele>
<time>2021-06-16T01:27:20Z</time></trkpt>
<trkpt lat="31.80877" lon="35.00331">
<ele>269</ele>
<time>2021-06-16T01:27:24Z</time></trkpt>
<trkpt lat="31.80857" lon="35.00339">
<ele>270</ele>
<time>2021-06-16T01:27:28Z</time></trkpt>
<trkpt lat="31.80836" lon="35.00334">
<ele>271</ele>
<time>2021-06-16T01:27:33Z</time></trkpt>
<trkpt lat="31.8076" lon="35.00366">
<ele>276</ele>
<time>2021-06-16T01:27:49Z</time></trkpt>
<trkpt lat="31.80714" lon="35.00415">
<ele>274</ele>
<time>2021-06-16T01:28:01Z</time></trkpt>
<trkpt lat="31.8069" lon="35.00421">
<ele>277</ele>
<time>2021-06-16T01:28:06Z</time></trkpt>
<trkpt lat="31.80684" lon="35.00432">
<ele>277</ele>
<time>2021-06-16T01:28:08Z</time></trkpt>
<trkpt lat="31.80666" lon="35.0045">
<ele>278</ele>
<time>2021-06-16T01:28:13Z</time></trkpt>
<trkpt lat="31.80639" lon="35.00443">
<ele>280</ele>
<time>2021-06-16T01:28:19Z</time></trkpt>
<trkpt lat="31.80585" lon="35.00424">
<ele>287</ele>
<time>2021-06-16T01:28:30Z</time></trkpt>
<trkpt lat="31.80571" lon="35.00421">
<ele>288</ele>
<time>2021-06-16T01:28:33Z</time></trkpt>
<trkpt lat="31.8056" lon="35.00421">
<ele>288</ele>
<time>2021-06-16T01:28:35Z</time></trkpt>
<trkpt lat="31.80546" lon="35.00424">
<ele>288</ele>
<time>2021-06-16T01:28:38Z</time></trkpt>
<trkpt lat="31.80511" lon="35.00436">
<ele>288</ele>
<time>2021-06-16T01:28:45Z</time></trkpt>
<trkpt lat="31.80497" lon="35.00444">
<ele>288</ele>
<time>2021-06-16T01:28:48Z</time></trkpt>
<trkpt lat="31.80488" lon="35.00457">
<ele>288</ele>
<time>2021-06-16T01:28:51Z</time></trkpt>
<trkpt lat="31.80485" lon="35.00467">
<ele>287</ele>
<time>2021-06-16T01:28:53Z</time></trkpt>
<trkpt lat="31.80484" lon="35.0048">
<ele>286</ele>
<time>2021-06-16T01:28:55Z</time></trkpt>
<trkpt lat="31.80489" lon="35.00519">
<ele>284</ele>
<time>2021-06-16T01:29:02Z</time></trkpt>
<trkpt lat="31.80489" lon="35.00541">
<ele>284</ele>
<time>2021-06-16T01:29:06Z</time></trkpt>
<trkpt lat="31.80491" lon="35.00569">
<ele>284</ele>
<time>2021-06-16T01:29:10Z</time></trkpt>
<trkpt lat="31.8049" lon="35.00596">
<ele>284</ele>
<time>2021-06-16T01:29:15Z</time></trkpt>
<trkpt lat="31.80487" lon="35.00613">
<ele>284</ele>
<time>2021-06-16T01:29:18Z</time></trkpt>
<trkpt lat="31.80477" lon="35.00644">
<ele>285</ele>
<time>2021-06-16T01:29:24Z</time></trkpt>
<trkpt lat="31.80459" lon="35.00676">
<ele>287</ele>
<time>2021-06-16T01:29:30Z</time></trkpt>
<trkpt lat="31.80425" lon="35.00721">
<ele>287</ele>
<time>2021-06-16T01:29:40Z</time></trkpt>
<trkpt lat="31.80409" lon="35.00737">
<ele>286</ele>
<time>2021-06-16T01:29:45Z</time></trkpt>
<trkpt lat="31.8037" lon="35.00763">
<ele>289</ele>
<time>2021-06-16T01:29:54Z</time></trkpt>
<trkpt lat="31.80344" lon="35.00776">
<ele>291</ele>
<time>2021-06-16T01:29:59Z</time></trkpt>
<trkpt lat="31.80297" lon="35.00796">
<ele>292</ele>
<time>2021-06-16T01:30:09Z</time></trkpt>
<trkpt lat="31.80268" lon="35.00805">
<ele>292</ele>
<time>2021-06-16T01:30:15Z</time></trkpt>
<trkpt lat="31.80259" lon="35.00811">
<ele>292</ele>
<time>2021-06-16T01:30:17Z</time></trkpt>
<trkpt lat="31.80255" lon="35.00816">
<ele>292</ele>
<time>2021-06-16T01:30:18Z</time></trkpt>
<trkpt lat="31.80251" lon="35.00833">
<ele>289</ele>
<time>2021-06-16T01:30:21Z</time></trkpt>
<trkpt lat="31.80252" lon="35.00845">
<ele>289</ele>
<time>2021-06-16T01:30:24Z</time></trkpt>
<trkpt lat="31.80265" lon="35.00904">
<ele>290</ele>
<time>2021-06-16T01:30:34Z</time></trkpt>
<trkpt lat="31.80266" lon="35.00996">
<ele>292</ele>
<time>2021-06-16T01:30:50Z</time></trkpt>
<trkpt lat="31.8027" lon="35.01016">
<ele>292</ele>
<time>2021-06-16T01:30:53Z</time></trkpt>
<trkpt lat="31.8027" lon="35.01015">
<ele>292</ele>
<time>2021-06-16T01:30:53Z</time></trkpt>
<trkpt lat="31.80275" lon="35.01048">
<ele>292</ele>
<time>2021-06-16T01:30:59Z</time></trkpt>
<trkpt lat="31.80274" lon="35.01069">
<ele>291</ele>
<time>2021-06-16T01:31:03Z</time></trkpt>
<trkpt lat="31.8027" lon="35.0107">
<ele>291</ele>
<time>2021-06-16T01:31:03Z</time></trkpt>
<trkpt lat="31.80236" lon="35.01122">
<ele>293</ele>
<time>2021-06-16T01:31:15Z</time></trkpt>
<trkpt lat="31.80227" lon="35.01133">
<ele>294</ele>
<time>2021-06-16T01:31:17Z</time></trkpt>
<trkpt lat="31.80213" lon="35.01145">
<ele>295</ele>
<time>2021-06-16T01:31:21Z</time></trkpt>
<trkpt lat="31.8019" lon="35.01151">
<ele>297</ele>
<time>2021-06-16T01:31:25Z</time></trkpt>
<trkpt lat="31.80186" lon="35.01142">
<ele>298</ele>
<time>2021-06-16T01:31:27Z</time></trkpt>
<trkpt lat="31.80184" lon="35.0114">
<ele>299</ele>
<time>2021-06-16T01:31:28Z</time></trkpt>
<trkpt lat="31.80181" lon="35.01139">
<ele>299</ele>
<time>2021-06-16T01:31:28Z</time></trkpt>
<trkpt lat="31.80175" lon="35.01141">
<ele>300</ele>
<time>2021-06-16T01:31:29Z</time></trkpt>
<trkpt lat="31.80171" lon="35.01146">
<ele>300</ele>
<time>2021-06-16T01:31:31Z</time></trkpt>
<trkpt lat="31.8017" lon="35.01152">
<ele>299</ele>
<time>2021-06-16T01:31:32Z</time></trkpt>
<trkpt lat="31.80175" lon="35.01161">
<ele>298</ele>
<time>2021-06-16T01:31:33Z</time></trkpt>
<trkpt lat="31.80169" lon="35.01173">
<ele>297</ele>
<time>2021-06-16T01:31:36Z</time></trkpt>
<trkpt lat="31.8016" lon="35.01184">
<ele>298</ele>
<time>2021-06-16T01:31:38Z</time></trkpt>
<trkpt lat="31.8015" lon="35.01193">
<ele>298</ele>
<time>2021-06-16T01:31:41Z</time></trkpt>
<trkpt lat="31.80136" lon="35.01202">
<ele>298</ele>
<time>2021-06-16T01:31:44Z</time></trkpt>
<trkpt lat="31.80112" lon="35.01213">
<ele>299</ele>
<time>2021-06-16T01:31:49Z</time></trkpt>
<trkpt lat="31.80089" lon="35.01218">
<ele>300</ele>
<time>2021-06-16T01:31:54Z</time></trkpt>
<trkpt lat="31.80072" lon="35.0122">
<ele>301</ele>
<time>2021-06-16T01:31:57Z</time></trkpt>
<trkpt lat="31.79936" lon="35.01232">
<ele>307</ele>
<time>2021-06-16T01:32:25Z</time></trkpt>
<trkpt lat="31.79915" lon="35.01272">
<ele>306</ele>
<time>2021-06-16T01:32:33Z</time></trkpt>
<trkpt lat="31.79898" lon="35.01349">
<ele>307</ele>
<time>2021-06-16T01:32:46Z</time></trkpt>
<trkpt lat="31.79875" lon="35.01343">
<ele>311</ele>
<time>2021-06-16T01:32:51Z</time></trkpt>
<trkpt lat="31.79859" lon="35.01341">
<ele>314</ele>
<time>2021-06-16T01:32:54Z</time></trkpt>
<trkpt lat="31.79849" lon="35.01343">
<ele>316</ele>
<time>2021-06-16T01:32:56Z</time></trkpt>
<trkpt lat="31.79842" lon="35.01348">
<ele>317</ele>
<time>2021-06-16T01:32:58Z</time></trkpt>
<trkpt lat="31.7984" lon="35.01351">
<ele>317</ele>
<time>2021-06-16T01:32:59Z</time></trkpt>
<trkpt lat="31.79826" lon="35.01352">
<ele>319</ele>
<time>2021-06-16T01:33:01Z</time></trkpt>
<trkpt lat="31.79799" lon="35.01391">
<ele>320</ele>
<time>2021-06-16T01:33:10Z</time></trkpt>
<trkpt lat="31.79792" lon="35.01395">
<ele>321</ele>
<time>2021-06-16T01:33:12Z</time></trkpt>
<trkpt lat="31.79766" lon="35.01408">
<ele>323</ele>
<time>2021-06-16T01:33:17Z</time></trkpt>
<trkpt lat="31.79701" lon="35.01429">
<ele>328</ele>
<time>2021-06-16T01:33:31Z</time></trkpt>
<trkpt lat="31.79674" lon="35.01432">
<ele>330</ele>
<time>2021-06-16T01:33:36Z</time></trkpt>
<trkpt lat="31.79641" lon="35.01431">
<ele>333</ele>
<time>2021-06-16T01:33:43Z</time></trkpt>
<trkpt lat="31.79601" lon="35.01423">
<ele>336</ele>
<time>2021-06-16T01:33:51Z</time></trkpt>
<trkpt lat="31.79592" lon="35.01425">
<ele>336</ele>
<time>2021-06-16T01:33:53Z</time></trkpt>
<trkpt lat="31.79456" lon="35.01399">
<ele>346</ele>
<time>2021-06-16T01:34:20Z</time></trkpt>
<trkpt lat="31.79418" lon="35.01386">
<ele>348</ele>
<time>2021-06-16T01:34:28Z</time></trkpt>
<trkpt lat="31.79403" lon="35.01367">
<ele>349</ele>
<time>2021-06-16T01:34:33Z</time></trkpt>
<trkpt lat="31.79383" lon="35.01316">
<ele>351</ele>
<time>2021-06-16T01:34:42Z</time></trkpt>
<trkpt lat="31.79349" lon="35.01268">
<ele>352</ele>
<time>2021-06-16T01:34:53Z</time></trkpt>
<trkpt lat="31.79349" lon="35.01267">
<ele>352</ele>
<time>2021-06-16T01:34:53Z</time></trkpt>
<trkpt lat="31.7934" lon="35.01255">
<ele>353</ele>
<time>2021-06-16T01:34:56Z</time></trkpt>
<trkpt lat="31.79319" lon="35.01204">
<ele>353</ele>
<time>2021-06-16T01:35:05Z</time></trkpt>
<trkpt lat="31.79291" lon="35.01164">
<ele>355</ele>
<time>2021-06-16T01:35:14Z</time></trkpt>
<trkpt lat="31.79274" lon="35.01127">
<ele>357</ele>
<time>2021-06-16T01:35:21Z</time></trkpt>
<trkpt lat="31.79258" lon="35.01103">
<ele>359</ele>
<time>2021-06-16T01:35:27Z</time></trkpt>
<trkpt lat="31.79242" lon="35.01086">
<ele>361</ele>
<time>2021-06-16T01:35:31Z</time></trkpt>
<trkpt lat="31.79216" lon="35.01074">
<ele>362</ele>
<time>2021-06-16T01:35:37Z</time></trkpt>
<trkpt lat="31.79194" lon="35.01069">
<ele>363</ele>
<time>2021-06-16T01:35:41Z</time></trkpt>
<trkpt lat="31.79122" lon="35.01046">
<ele>366</ele>
<time>2021-06-16T01:35:56Z</time></trkpt>
<trkpt lat="31.7905" lon="35.01029">
<ele>370</ele>
<time>2021-06-16T01:36:11Z</time></trkpt>
<trkpt lat="31.79025" lon="35.01025">
<ele>372</ele>
<time>2021-06-16T01:36:16Z</time></trkpt>
<trkpt lat="31.79014" lon="35.01028">
<ele>372</ele>
<time>2021-06-16T01:36:18Z</time></trkpt>
<trkpt lat="31.78994" lon="35.01039">
<ele>369</ele>
<time>2021-06-16T01:36:22Z</time></trkpt>
<trkpt lat="31.78975" lon="35.01052">
<ele>367</ele>
<time>2021-06-16T01:36:27Z</time></trkpt>
<trkpt lat="31.78945" lon="35.0106">
<ele>366</ele>
<time>2021-06-16T01:36:33Z</time></trkpt>
<trkpt lat="31.78897" lon="35.01052">
<ele>369</ele>
<time>2021-06-16T01:36:43Z</time></trkpt>
<trkpt lat="31.78879" lon="35.01045">
<ele>371</ele>
<time>2021-06-16T01:36:47Z</time></trkpt>
<trkpt lat="31.78865" lon="35.01043">
<ele>372</ele>
<time>2021-06-16T01:36:49Z</time></trkpt>
<trkpt lat="31.78764" lon="35.01053">
<ele>371</ele>
<time>2021-06-16T01:37:10Z</time></trkpt>
<trkpt lat="31.78706" lon="35.01051">
<ele>371</ele>
<time>2021-06-16T01:37:21Z</time></trkpt>
<trkpt lat="31.78677" lon="35.01053">
<ele>371</ele>
<time>2021-06-16T01:37:27Z</time></trkpt>
<trkpt lat="31.78655" lon="35.01061">
<ele>370</ele>
<time>2021-06-16T01:37:32Z</time></trkpt>
<trkpt lat="31.78644" lon="35.01068">
<ele>370</ele>
<time>2021-06-16T01:37:34Z</time></trkpt>
<trkpt lat="31.78633" lon="35.01078">
<ele>370</ele>
<time>2021-06-16T01:37:37Z</time></trkpt>
<trkpt lat="31.78607" lon="35.01104">
<ele>367</ele>
<time>2021-06-16T01:37:44Z</time></trkpt>
<trkpt lat="31.78591" lon="35.01118">
<ele>366</ele>
<time>2021-06-16T01:37:48Z</time></trkpt>
<trkpt lat="31.78574" lon="35.01129">
<ele>363</ele>
<time>2021-06-16T01:37:52Z</time></trkpt>
<trkpt lat="31.78552" lon="35.01136">
<ele>360</ele>
<time>2021-06-16T01:37:56Z</time></trkpt>
<trkpt lat="31.78545" lon="35.01136">
<ele>360</ele>
<time>2021-06-16T01:37:58Z</time></trkpt>
<trkpt lat="31.78527" lon="35.01132">
<ele>359</ele>
<time>2021-06-16T01:38:01Z</time></trkpt>
<trkpt lat="31.78511" lon="35.01124">
<ele>360</ele>
<time>2021-06-16T01:38:05Z</time></trkpt>
<trkpt lat="31.78501" lon="35.01113">
<ele>361</ele>
<time>2021-06-16T01:38:08Z</time></trkpt>
<trkpt lat="31.78495" lon="35.011">
<ele>362</ele>
<time>2021-06-16T01:38:10Z</time></trkpt>
<trkpt lat="31.78489" lon="35.01079">
<ele>363</ele>
<time>2021-06-16T01:38:14Z</time></trkpt>
<trkpt lat="31.78489" lon="35.01068">
<ele>364</ele>
<time>2021-06-16T01:38:16Z</time></trkpt>
<trkpt lat="31.78493" lon="35.01001">
<ele>368</ele>
<time>2021-06-16T01:38:27Z</time></trkpt>
<trkpt lat="31.78498" lon="35.00967">
<ele>367</ele>
<time>2021-06-16T01:38:33Z</time></trkpt>
<trkpt lat="31.78501" lon="35.00955">
<ele>366</ele>
<time>2021-06-16T01:38:35Z</time></trkpt>
<trkpt lat="31.78514" lon="35.00929">
<ele>365</ele>
<time>2021-06-16T01:38:40Z</time></trkpt>
<trkpt lat="31.7852" lon="35.00921">
<ele>365</ele>
<time>2021-06-16T01:38:42Z</time></trkpt>
<trkpt lat="31.78533" lon="35.0091">
<ele>364</ele>
<time>2021-06-16T01:38:45Z</time></trkpt>
<trkpt lat="31.7855" lon="35.009">
<ele>363</ele>
<time>2021-06-16T01:38:49Z</time></trkpt>
<trkpt lat="31.78566" lon="35.00894">
<ele>363</ele>
<time>2021-06-16T01:38:53Z</time></trkpt>
<trkpt lat="31.78595" lon="35.00888">
<ele>364</ele>
<time>2021-06-16T01:38:58Z</time></trkpt>
<trkpt lat="31.78636" lon="35.00893">
<ele>368</ele>
<time>2021-06-16T01:39:07Z</time></trkpt>
<trkpt lat="31.78706" lon="35.00907">
<ele>373</ele>
<time>2021-06-16T01:39:21Z</time></trkpt>
<trkpt lat="31.78705" lon="35.00907">
<ele>373</ele>
<time>2021-06-16T01:39:21Z</time></trkpt>
<trkpt lat="31.78727" lon="35.00912">
<ele>375</ele>
<time>2021-06-16T01:39:26Z</time></trkpt>
<trkpt lat="31.78749" lon="35.00915">
<ele>376</ele>
<time>2021-06-16T01:39:30Z</time></trkpt>
<trkpt lat="31.78762" lon="35.00914">
<ele>376</ele>
<time>2021-06-16T01:39:33Z</time></trkpt>
<trkpt lat="31.78775" lon="35.00911">
<ele>377</ele>
<time>2021-06-16T01:39:35Z</time></trkpt>
<trkpt lat="31.78809" lon="35.00898">
<ele>377</ele>
<time>2021-06-16T01:39:42Z</time></trkpt>
<trkpt lat="31.78852" lon="35.0089">
<ele>379</ele>
<time>2021-06-16T01:39:51Z</time></trkpt>
<trkpt lat="31.78868" lon="35.00885">
<ele>380</ele>
<time>2021-06-16T01:39:55Z</time></trkpt>
<trkpt lat="31.78909" lon="35.00869">
<ele>381</ele>
<time>2021-06-16T01:40:03Z</time></trkpt>
<trkpt lat="31.78958" lon="35.00855">
<ele>384</ele>
<time>2021-06-16T01:40:13Z</time></trkpt>
<trkpt lat="31.78978" lon="35.00845">
<ele>385</ele>
<time>2021-06-16T01:40:18Z</time></trkpt>
<trkpt lat="31.78989" lon="35.00836">
<ele>386</ele>
<time>2021-06-16T01:40:20Z</time></trkpt>
<trkpt lat="31.79004" lon="35.00817">
<ele>387</ele>
<time>2021-06-16T01:40:25Z</time></trkpt>
<trkpt lat="31.79023" lon="35.00788">
<ele>386</ele>
<time>2021-06-16T01:40:31Z</time></trkpt>
<trkpt lat="31.79055" lon="35.00734">
<ele>389</ele>
<time>2021-06-16T01:40:42Z</time></trkpt>
<trkpt lat="31.79072" lon="35.00719">
<ele>391</ele>
<time>2021-06-16T01:40:46Z</time></trkpt>
<trkpt lat="31.79108" lon="35.00695">
<ele>392</ele>
<time>2021-06-16T01:40:55Z</time></trkpt>
<trkpt lat="31.79169" lon="35.00637">
<ele>394</ele>
<time>2021-06-16T01:41:10Z</time></trkpt>
<trkpt lat="31.79274" lon="35.00538">
<ele>392</ele>
<time>2021-06-16T01:41:37Z</time></trkpt>
<trkpt lat="31.79292" lon="35.00517">
<ele>392</ele>
<time>2021-06-16T01:41:42Z</time></trkpt>
<trkpt lat="31.79308" lon="35.00455">
<ele>392</ele>
<time>2021-06-16T01:41:54Z</time></trkpt>
<trkpt lat="31.79294" lon="35.00446">
<ele>391</ele>
<time>2021-06-16T01:41:57Z</time></trkpt>
<trkpt lat="31.79279" lon="35.00441">
<ele>389</ele>
<time>2021-06-16T01:42:00Z</time></trkpt>
<trkpt lat="31.79178" lon="35.00435">
<ele>378</ele>
<time>2021-06-16T01:42:20Z</time></trkpt>
<trkpt lat="31.79006" lon="35.00406">
<ele>364</ele>
<time>2021-06-16T01:42:55Z</time></trkpt>
<trkpt lat="31.7894" lon="35.00401">
<ele>355</ele>
<time>2021-06-16T01:43:08Z</time></trkpt>
<trkpt lat="31.78914" lon="35.00401">
<ele>352</ele>
<time>2021-06-16T01:43:13Z</time></trkpt>
<trkpt lat="31.7889" lon="35.00407">
<ele>348</ele>
<time>2021-06-16T01:43:18Z</time></trkpt>
<trkpt lat="31.78879" lon="35.00415">
<ele>348</ele>
<time>2021-06-16T01:43:21Z</time></trkpt>
<trkpt lat="31.78868" lon="35.00426">
<ele>348</ele>
<time>2021-06-16T01:43:24Z</time></trkpt>
<trkpt lat="31.78781" lon="35.00545">
<ele>340</ele>
<time>2021-06-16T01:43:51Z</time></trkpt>
<trkpt lat="31.78757" lon="35.0059">
<ele>337</ele>
<time>2021-06-16T01:44:00Z</time></trkpt>
<trkpt lat="31.78747" lon="35.00623">
<ele>335</ele>
<time>2021-06-16T01:44:06Z</time></trkpt>
<trkpt lat="31.78739" lon="35.00657">
<ele>333</ele>
<time>2021-06-16T01:44:12Z</time></trkpt>
<trkpt lat="31.78734" lon="35.00703">
<ele>335</ele>
<time>2021-06-16T01:44:19Z</time></trkpt>
<trkpt lat="31.7873" lon="35.0072">
<ele>335</ele>
<time>2021-06-16T01:44:22Z</time></trkpt>
<trkpt lat="31.78726" lon="35.00728">
<ele>336</ele>
<time>2021-06-16T01:44:24Z</time></trkpt>
<trkpt lat="31.7871" lon="35.00741">
<ele>335</ele>
<time>2021-06-16T01:44:28Z</time></trkpt>
<trkpt lat="31.78699" lon="35.00743">
<ele>334</ele>
<time>2021-06-16T01:44:30Z</time></trkpt>
<trkpt lat="31.7868" lon="35.00741">
<ele>333</ele>
<time>2021-06-16T01:44:34Z</time></trkpt>
<trkpt lat="31.78629" lon="35.00726">
<ele>325</ele>
<time>2021-06-16T01:44:45Z</time></trkpt>
<trkpt lat="31.78628" lon="35.00726">
<ele>325</ele>
<time>2021-06-16T01:44:45Z</time></trkpt>
<trkpt lat="31.78607" lon="35.00721">
<ele>322</ele>
<time>2021-06-16T01:44:49Z</time></trkpt>
<trkpt lat="31.78581" lon="35.00712">
<ele>318</ele>
<time>2021-06-16T01:44:54Z</time></trkpt>
<trkpt lat="31.78567" lon="35.00703">
<ele>317</ele>
<time>2021-06-16T01:44:58Z</time></trkpt>
<trkpt lat="31.78555" lon="35.00686">
<ele>314</ele>
<time>2021-06-16T01:45:01Z</time></trkpt>
<trkpt lat="31.7855" lon="35.00675">
<ele>313</ele>
<time>2021-06-16T01:45:04Z</time></trkpt>
<trkpt lat="31.78543" lon="35.00651">
<ele>310</ele>
<time>2021-06-16T01:45:08Z</time></trkpt>
<trkpt lat="31.78539" lon="35.00627">
<ele>307</ele>
<time>2021-06-16T01:45:12Z</time></trkpt>
<trkpt lat="31.78531" lon="35.00608">
<ele>305</ele>
<time>2021-06-16T01:45:16Z</time></trkpt>
<trkpt lat="31.78508" lon="35.00579">
<ele>302</ele>
<time>2021-06-16T01:45:22Z</time></trkpt>
<trkpt lat="31.78487" lon="35.00559">
<ele>299</ele>
<time>2021-06-16T01:45:28Z</time></trkpt>
<trkpt lat="31.78438" lon="35.00528">
<ele>294</ele>
<time>2021-06-16T01:45:39Z</time></trkpt>
<trkpt lat="31.78354" lon="35.00493">
<ele>285</ele>
<time>2021-06-16T01:45:57Z</time></trkpt>
<trkpt lat="31.78345" lon="35.00493">
<ele>285</ele>
<time>2021-06-16T01:45:59Z</time></trkpt>
<trkpt lat="31.78338" lon="35.00495">
<ele>285</ele>
<time>2021-06-16T01:46:00Z</time></trkpt>
<trkpt lat="31.7832" lon="35.00504">
<ele>284</ele>
<time>2021-06-16T01:46:04Z</time></trkpt>
<trkpt lat="31.78303" lon="35.00519">
<ele>286</ele>
<time>2021-06-16T01:46:08Z</time></trkpt>
<trkpt lat="31.78292" lon="35.00524">
<ele>286</ele>
<time>2021-06-16T01:46:11Z</time></trkpt>
<trkpt lat="31.78283" lon="35.00525">
<ele>285</ele>
<time>2021-06-16T01:46:12Z</time></trkpt>
<trkpt lat="31.78276" lon="35.00523">
<ele>285</ele>
<time>2021-06-16T01:46:14Z</time></trkpt>
<trkpt lat="31.78266" lon="35.00515">
<ele>282</ele>
<time>2021-06-16T01:46:16Z</time></trkpt>
<trkpt lat="31.78239" lon="35.00481">
<ele>276</ele>
<time>2021-06-16T01:46:24Z</time></trkpt>
<trkpt lat="31.78228" lon="35.00473">
<ele>275</ele>
<time>2021-06-16T01:46:27Z</time></trkpt>
<trkpt lat="31.78203" lon="35.00457">
<ele>272</ele>
<time>2021-06-16T01:46:32Z</time></trkpt>
<trkpt lat="31.78197" lon="35.00452">
<ele>271</ele>
<time>2021-06-16T01:46:34Z</time></trkpt>
<trkpt lat="31.78189" lon="35.0044">
<ele>270</ele>
<time>2021-06-16T01:46:37Z</time></trkpt>
<trkpt lat="31.78183" lon="35.00427">
<ele>268</ele>
<time>2021-06-16T01:46:39Z</time></trkpt>
<trkpt lat="31.78171" lon="35.00362">
<ele>267</ele>
<time>2021-06-16T01:46:50Z</time></trkpt>
<trkpt lat="31.78159" lon="35.00321">
<ele>267</ele>
<time>2021-06-16T01:46:58Z</time></trkpt>
<trkpt lat="31.78159" lon="35.0032">
<ele>267</ele>
<time>2021-06-16T01:46:58Z</time></trkpt>
<trkpt lat="31.78152" lon="35.00294">
<ele>266</ele>
<time>2021-06-16T01:47:03Z</time></trkpt>
<trkpt lat="31.78139" lon="35.00231">
<ele>267</ele>
<time>2021-06-16T01:47:14Z</time></trkpt>
<trkpt lat="31.78192" lon="35.00217">
<ele>269</ele>
<time>2021-06-16T01:47:25Z</time></trkpt>
<trkpt lat="31.78251" lon="35.00199">
<ele>273</ele>
<time>2021-06-16T01:47:37Z</time></trkpt>
</trkseg>
</trk>
</gpx>